<?xml version="1.0" encoding="UTF-8" standalone="no" ?>
<gpx xmlns="http://www.topografix.com/GPX/1/1" xmlns:xsi="http://www.w3.org/2001/XMLSchema-instance" xsi:schemaLocation="http://www.topografix.com/GPX/1/1 http://www.topografix.com/GPX/1/1/gpx.xsd" version="1.1" creator="VisuGPX - https://www.visugpx.com">
  <metadata>
    <name>Ligny/Canche</name>
  </metadata>
  <trk>
    <name><![CDATA[Tracé actuel: 10 AOU 2022 08:56]]></name>
    <trkseg>
      <trkpt lat="50.28375" lon="2.25824">
        <ele>-9.48</ele>
        <time>2022-08-10T06:56:48Z</time>
      </trkpt>
      <trkpt lat="50.28381" lon="2.25808">
        <ele>66.47</ele>
        <time>2022-08-10T06:57:07Z</time>
      </trkpt>
      <trkpt lat="50.28393" lon="2.25789">
        <ele>102.04</ele>
        <time>2022-08-10T06:57:27Z</time>
      </trkpt>
      <trkpt lat="50.28372" lon="2.25777">
        <ele>69.35</ele>
        <time>2022-08-10T06:57:41Z</time>
      </trkpt>
      <trkpt lat="50.28369" lon="2.25776">
        <ele>64.55</ele>
        <time>2022-08-10T06:57:56Z</time>
      </trkpt>
      <trkpt lat="50.28371" lon="2.25775">
        <ele>65.99</ele>
        <time>2022-08-10T06:58:17Z</time>
      </trkpt>
      <trkpt lat="50.28371" lon="2.25778">
        <ele>65.03</ele>
        <time>2022-08-10T06:58:41Z</time>
      </trkpt>
      <trkpt lat="50.2837" lon="2.25778">
        <ele>65.51</ele>
        <time>2022-08-10T06:58:57Z</time>
      </trkpt>
      <trkpt lat="50.2837" lon="2.2578">
        <ele>63.58</ele>
        <time>2022-08-10T06:59:17Z</time>
      </trkpt>
      <trkpt lat="50.28371" lon="2.25779">
        <ele>63.58</ele>
        <time>2022-08-10T06:59:43Z</time>
      </trkpt>
      <trkpt lat="50.28371" lon="2.25779">
        <ele>63.1</ele>
        <time>2022-08-10T07:00:05Z</time>
      </trkpt>
      <trkpt lat="50.28371" lon="2.2578">
        <ele>63.1</ele>
        <time>2022-08-10T07:00:11Z</time>
      </trkpt>
      <trkpt lat="50.28382" lon="2.25765">
        <ele>63.1</ele>
        <time>2022-08-10T07:00:24Z</time>
      </trkpt>
      <trkpt lat="50.28397" lon="2.25765">
        <ele>63.58</ele>
        <time>2022-08-10T07:00:36Z</time>
      </trkpt>
      <trkpt lat="50.2842" lon="2.25763">
        <ele>65.99</ele>
        <time>2022-08-10T07:00:53Z</time>
      </trkpt>
      <trkpt lat="50.28426" lon="2.25762">
        <ele>66.47</ele>
        <time>2022-08-10T07:00:58Z</time>
      </trkpt>
      <trkpt lat="50.2844" lon="2.25743">
        <ele>65.51</ele>
        <time>2022-08-10T07:01:13Z</time>
      </trkpt>
      <trkpt lat="50.28455" lon="2.25728">
        <ele>65.03</ele>
        <time>2022-08-10T07:01:27Z</time>
      </trkpt>
      <trkpt lat="50.28473" lon="2.25708">
        <ele>66.47</ele>
        <time>2022-08-10T07:01:44Z</time>
      </trkpt>
      <trkpt lat="50.28491" lon="2.25686">
        <ele>65.03</ele>
        <time>2022-08-10T07:02:01Z</time>
      </trkpt>
      <trkpt lat="50.28508" lon="2.25664">
        <ele>65.99</ele>
        <time>2022-08-10T07:02:17Z</time>
      </trkpt>
      <trkpt lat="50.28522" lon="2.25653">
        <ele>66.47</ele>
        <time>2022-08-10T07:02:29Z</time>
      </trkpt>
      <trkpt lat="50.28539" lon="2.25639">
        <ele>65.51</ele>
        <time>2022-08-10T07:02:43Z</time>
      </trkpt>
      <trkpt lat="50.28555" lon="2.25625">
        <ele>64.55</ele>
        <time>2022-08-10T07:02:57Z</time>
      </trkpt>
      <trkpt lat="50.28564" lon="2.25595">
        <ele>61.18</ele>
        <time>2022-08-10T07:03:13Z</time>
      </trkpt>
      <trkpt lat="50.28569" lon="2.25562">
        <ele>60.22</ele>
        <time>2022-08-10T07:03:29Z</time>
      </trkpt>
      <trkpt lat="50.28578" lon="2.25529">
        <ele>61.18</ele>
        <time>2022-08-10T07:03:46Z</time>
      </trkpt>
      <trkpt lat="50.28586" lon="2.25502">
        <ele>60.22</ele>
        <time>2022-08-10T07:04:00Z</time>
      </trkpt>
      <trkpt lat="50.28592" lon="2.25479">
        <ele>59.74</ele>
        <time>2022-08-10T07:04:13Z</time>
      </trkpt>
      <trkpt lat="50.28604" lon="2.25448">
        <ele>58.78</ele>
        <time>2022-08-10T07:04:29Z</time>
      </trkpt>
      <trkpt lat="50.28615" lon="2.25415">
        <ele>61.18</ele>
        <time>2022-08-10T07:04:46Z</time>
      </trkpt>
      <trkpt lat="50.28625" lon="2.25389">
        <ele>64.55</ele>
        <time>2022-08-10T07:05:00Z</time>
      </trkpt>
      <trkpt lat="50.28637" lon="2.25362">
        <ele>66.47</ele>
        <time>2022-08-10T07:05:14Z</time>
      </trkpt>
      <trkpt lat="50.28646" lon="2.25336">
        <ele>65.99</ele>
        <time>2022-08-10T07:05:27Z</time>
      </trkpt>
      <trkpt lat="50.28656" lon="2.25307">
        <ele>63.58</ele>
        <time>2022-08-10T07:05:41Z</time>
      </trkpt>
      <trkpt lat="50.28667" lon="2.25281">
        <ele>62.62</ele>
        <time>2022-08-10T07:05:56Z</time>
      </trkpt>
      <trkpt lat="50.28677" lon="2.25264">
        <ele>62.62</ele>
        <time>2022-08-10T07:06:08Z</time>
      </trkpt>
      <trkpt lat="50.28679" lon="2.25264">
        <ele>63.1</ele>
        <time>2022-08-10T07:06:10Z</time>
      </trkpt>
      <trkpt lat="50.28692" lon="2.25274">
        <ele>65.03</ele>
        <time>2022-08-10T07:06:23Z</time>
      </trkpt>
      <trkpt lat="50.28703" lon="2.25285">
        <ele>65.99</ele>
        <time>2022-08-10T07:06:35Z</time>
      </trkpt>
      <trkpt lat="50.28714" lon="2.25294">
        <ele>67.91</ele>
        <time>2022-08-10T07:06:46Z</time>
      </trkpt>
      <trkpt lat="50.28725" lon="2.25298">
        <ele>69.83</ele>
        <time>2022-08-10T07:06:56Z</time>
      </trkpt>
      <trkpt lat="50.28743" lon="2.25299">
        <ele>71.27</ele>
        <time>2022-08-10T07:07:09Z</time>
      </trkpt>
      <trkpt lat="50.28758" lon="2.25301">
        <ele>72.72</ele>
        <time>2022-08-10T07:07:19Z</time>
      </trkpt>
      <trkpt lat="50.28773" lon="2.25302">
        <ele>72.72</ele>
        <time>2022-08-10T07:07:31Z</time>
      </trkpt>
      <trkpt lat="50.28786" lon="2.25303">
        <ele>73.68</ele>
        <time>2022-08-10T07:07:42Z</time>
      </trkpt>
      <trkpt lat="50.28797" lon="2.253">
        <ele>75.12</ele>
        <time>2022-08-10T07:07:51Z</time>
      </trkpt>
      <trkpt lat="50.28801" lon="2.25296">
        <ele>75.6</ele>
        <time>2022-08-10T07:07:55Z</time>
      </trkpt>
      <trkpt lat="50.28816" lon="2.25288">
        <ele>75.6</ele>
        <time>2022-08-10T07:08:08Z</time>
      </trkpt>
      <trkpt lat="50.28829" lon="2.25277">
        <ele>73.68</ele>
        <time>2022-08-10T07:08:23Z</time>
      </trkpt>
      <trkpt lat="50.28841" lon="2.25268">
        <ele>72.72</ele>
        <time>2022-08-10T07:08:34Z</time>
      </trkpt>
      <trkpt lat="50.28853" lon="2.25259">
        <ele>71.76</ele>
        <time>2022-08-10T07:08:47Z</time>
      </trkpt>
      <trkpt lat="50.28868" lon="2.25248">
        <ele>71.76</ele>
        <time>2022-08-10T07:09:00Z</time>
      </trkpt>
      <trkpt lat="50.28883" lon="2.25237">
        <ele>72.72</ele>
        <time>2022-08-10T07:09:15Z</time>
      </trkpt>
      <trkpt lat="50.28903" lon="2.25218">
        <ele>72.24</ele>
        <time>2022-08-10T07:09:29Z</time>
      </trkpt>
      <trkpt lat="50.28919" lon="2.25199">
        <ele>73.2</ele>
        <time>2022-08-10T07:09:41Z</time>
      </trkpt>
      <trkpt lat="50.28933" lon="2.25181">
        <ele>74.64</ele>
        <time>2022-08-10T07:09:54Z</time>
      </trkpt>
      <trkpt lat="50.28949" lon="2.25164">
        <ele>75.12</ele>
        <time>2022-08-10T07:10:06Z</time>
      </trkpt>
      <trkpt lat="50.28954" lon="2.25158">
        <ele>75.6</ele>
        <time>2022-08-10T07:10:12Z</time>
      </trkpt>
      <trkpt lat="50.28957" lon="2.25155">
        <ele>75.6</ele>
        <time>2022-08-10T07:10:14Z</time>
      </trkpt>
      <trkpt lat="50.2897" lon="2.25137">
        <ele>75.6</ele>
        <time>2022-08-10T07:10:27Z</time>
      </trkpt>
      <trkpt lat="50.28976" lon="2.25128">
        <ele>76.56</ele>
        <time>2022-08-10T07:10:33Z</time>
      </trkpt>
      <trkpt lat="50.28991" lon="2.25112">
        <ele>76.56</ele>
        <time>2022-08-10T07:10:46Z</time>
      </trkpt>
      <trkpt lat="50.29002" lon="2.25094">
        <ele>76.08</ele>
        <time>2022-08-10T07:10:57Z</time>
      </trkpt>
      <trkpt lat="50.29014" lon="2.25073">
        <ele>72.72</ele>
        <time>2022-08-10T07:11:10Z</time>
      </trkpt>
      <trkpt lat="50.29024" lon="2.25049">
        <ele>71.27</ele>
        <time>2022-08-10T07:11:22Z</time>
      </trkpt>
      <trkpt lat="50.29028" lon="2.25041">
        <ele>71.76</ele>
        <time>2022-08-10T07:11:27Z</time>
      </trkpt>
      <trkpt lat="50.29043" lon="2.25015">
        <ele>70.31</ele>
        <time>2022-08-10T07:11:42Z</time>
      </trkpt>
      <trkpt lat="50.29052" lon="2.24995">
        <ele>67.91</ele>
        <time>2022-08-10T07:11:54Z</time>
      </trkpt>
      <trkpt lat="50.29061" lon="2.24969">
        <ele>64.07</ele>
        <time>2022-08-10T07:12:07Z</time>
      </trkpt>
      <trkpt lat="50.29069" lon="2.24944">
        <ele>61.18</ele>
        <time>2022-08-10T07:12:20Z</time>
      </trkpt>
      <trkpt lat="50.29076" lon="2.24918">
        <ele>59.74</ele>
        <time>2022-08-10T07:12:31Z</time>
      </trkpt>
      <trkpt lat="50.29082" lon="2.24885">
        <ele>58.78</ele>
        <time>2022-08-10T07:12:45Z</time>
      </trkpt>
      <trkpt lat="50.29086" lon="2.24865">
        <ele>62.14</ele>
        <time>2022-08-10T07:12:54Z</time>
      </trkpt>
      <trkpt lat="50.29086" lon="2.24863">
        <ele>62.14</ele>
        <time>2022-08-10T07:12:55Z</time>
      </trkpt>
      <trkpt lat="50.29088" lon="2.24856">
        <ele>62.62</ele>
        <time>2022-08-10T07:12:58Z</time>
      </trkpt>
      <trkpt lat="50.29089" lon="2.24847">
        <ele>62.62</ele>
        <time>2022-08-10T07:13:02Z</time>
      </trkpt>
      <trkpt lat="50.29092" lon="2.24819">
        <ele>63.1</ele>
        <time>2022-08-10T07:13:14Z</time>
      </trkpt>
      <trkpt lat="50.29095" lon="2.24795">
        <ele>62.62</ele>
        <time>2022-08-10T07:13:25Z</time>
      </trkpt>
      <trkpt lat="50.29101" lon="2.24772">
        <ele>61.66</ele>
        <time>2022-08-10T07:13:36Z</time>
      </trkpt>
      <trkpt lat="50.29106" lon="2.24746">
        <ele>62.14</ele>
        <time>2022-08-10T07:13:48Z</time>
      </trkpt>
      <trkpt lat="50.29107" lon="2.24744">
        <ele>62.14</ele>
        <time>2022-08-10T07:13:49Z</time>
      </trkpt>
      <trkpt lat="50.29111" lon="2.24722">
        <ele>61.18</ele>
        <time>2022-08-10T07:14:00Z</time>
      </trkpt>
      <trkpt lat="50.29116" lon="2.24704">
        <ele>60.22</ele>
        <time>2022-08-10T07:14:10Z</time>
      </trkpt>
      <trkpt lat="50.29122" lon="2.24681">
        <ele>55.89</ele>
        <time>2022-08-10T07:14:22Z</time>
      </trkpt>
      <trkpt lat="50.29124" lon="2.24654">
        <ele>51.09</ele>
        <time>2022-08-10T07:14:34Z</time>
      </trkpt>
      <trkpt lat="50.29127" lon="2.24629">
        <ele>49.16</ele>
        <time>2022-08-10T07:14:47Z</time>
      </trkpt>
      <trkpt lat="50.29129" lon="2.24595">
        <ele>45.32</ele>
        <time>2022-08-10T07:15:01Z</time>
      </trkpt>
      <trkpt lat="50.29132" lon="2.24566">
        <ele>42.92</ele>
        <time>2022-08-10T07:15:15Z</time>
      </trkpt>
      <trkpt lat="50.29137" lon="2.24542">
        <ele>43.4</ele>
        <time>2022-08-10T07:15:26Z</time>
      </trkpt>
      <trkpt lat="50.29138" lon="2.24534">
        <ele>42.92</ele>
        <time>2022-08-10T07:15:29Z</time>
      </trkpt>
      <trkpt lat="50.29139" lon="2.24508">
        <ele>40.99</ele>
        <time>2022-08-10T07:15:40Z</time>
      </trkpt>
      <trkpt lat="50.29144" lon="2.24479">
        <ele>39.55</ele>
        <time>2022-08-10T07:15:52Z</time>
      </trkpt>
      <trkpt lat="50.29148" lon="2.24441">
        <ele>42.44</ele>
        <time>2022-08-10T07:16:08Z</time>
      </trkpt>
      <trkpt lat="50.2916" lon="2.24414">
        <ele>46.76</ele>
        <time>2022-08-10T07:16:21Z</time>
      </trkpt>
      <trkpt lat="50.29167" lon="2.24379">
        <ele>53.01</ele>
        <time>2022-08-10T07:16:36Z</time>
      </trkpt>
      <trkpt lat="50.29172" lon="2.24349">
        <ele>56.37</ele>
        <time>2022-08-10T07:16:49Z</time>
      </trkpt>
      <trkpt lat="50.29179" lon="2.24309">
        <ele>59.26</ele>
        <time>2022-08-10T07:17:06Z</time>
      </trkpt>
      <trkpt lat="50.29186" lon="2.24274">
        <ele>60.22</ele>
        <time>2022-08-10T07:17:22Z</time>
      </trkpt>
      <trkpt lat="50.29192" lon="2.24242">
        <ele>59.74</ele>
        <time>2022-08-10T07:17:38Z</time>
      </trkpt>
      <trkpt lat="50.29198" lon="2.24219">
        <ele>60.22</ele>
        <time>2022-08-10T07:17:49Z</time>
      </trkpt>
      <trkpt lat="50.29204" lon="2.24195">
        <ele>60.22</ele>
        <time>2022-08-10T07:18:00Z</time>
      </trkpt>
      <trkpt lat="50.29206" lon="2.24189">
        <ele>60.22</ele>
        <time>2022-08-10T07:18:04Z</time>
      </trkpt>
      <trkpt lat="50.29214" lon="2.24165">
        <ele>61.66</ele>
        <time>2022-08-10T07:18:16Z</time>
      </trkpt>
      <trkpt lat="50.29217" lon="2.24147">
        <ele>62.62</ele>
        <time>2022-08-10T07:18:28Z</time>
      </trkpt>
      <trkpt lat="50.29216" lon="2.24143">
        <ele>64.55</ele>
        <time>2022-08-10T07:18:40Z</time>
      </trkpt>
      <trkpt lat="50.29216" lon="2.24143">
        <ele>65.99</ele>
        <time>2022-08-10T07:18:54Z</time>
      </trkpt>
      <trkpt lat="50.29219" lon="2.24146">
        <ele>66.95</ele>
        <time>2022-08-10T07:19:11Z</time>
      </trkpt>
      <trkpt lat="50.29219" lon="2.24142">
        <ele>67.91</ele>
        <time>2022-08-10T07:19:17Z</time>
      </trkpt>
      <trkpt lat="50.2922" lon="2.2411">
        <ele>69.83</ele>
        <time>2022-08-10T07:19:33Z</time>
      </trkpt>
      <trkpt lat="50.29222" lon="2.24075">
        <ele>70.31</ele>
        <time>2022-08-10T07:19:50Z</time>
      </trkpt>
      <trkpt lat="50.29222" lon="2.24067">
        <ele>70.31</ele>
        <time>2022-08-10T07:19:55Z</time>
      </trkpt>
      <trkpt lat="50.2922" lon="2.24063">
        <ele>70.31</ele>
        <time>2022-08-10T07:19:59Z</time>
      </trkpt>
      <trkpt lat="50.29205" lon="2.24056">
        <ele>73.2</ele>
        <time>2022-08-10T07:20:15Z</time>
      </trkpt>
      <trkpt lat="50.29203" lon="2.24053">
        <ele>73.68</ele>
        <time>2022-08-10T07:20:17Z</time>
      </trkpt>
      <trkpt lat="50.29199" lon="2.24051">
        <ele>73.68</ele>
        <time>2022-08-10T07:20:20Z</time>
      </trkpt>
      <trkpt lat="50.29184" lon="2.24038">
        <ele>72.24</ele>
        <time>2022-08-10T07:20:34Z</time>
      </trkpt>
      <trkpt lat="50.2917" lon="2.24026">
        <ele>70.31</ele>
        <time>2022-08-10T07:20:47Z</time>
      </trkpt>
      <trkpt lat="50.29162" lon="2.2402">
        <ele>68.39</ele>
        <time>2022-08-10T07:20:55Z</time>
      </trkpt>
      <trkpt lat="50.29147" lon="2.24007">
        <ele>63.58</ele>
        <time>2022-08-10T07:21:09Z</time>
      </trkpt>
      <trkpt lat="50.29138" lon="2.24001">
        <ele>60.22</ele>
        <time>2022-08-10T07:21:17Z</time>
      </trkpt>
      <trkpt lat="50.29137" lon="2.23987">
        <ele>55.41</ele>
        <time>2022-08-10T07:21:27Z</time>
      </trkpt>
      <trkpt lat="50.29139" lon="2.23973">
        <ele>51.57</ele>
        <time>2022-08-10T07:21:36Z</time>
      </trkpt>
      <trkpt lat="50.29127" lon="2.23952">
        <ele>47.24</ele>
        <time>2022-08-10T07:21:50Z</time>
      </trkpt>
      <trkpt lat="50.29122" lon="2.2394">
        <ele>45.32</ele>
        <time>2022-08-10T07:21:57Z</time>
      </trkpt>
      <trkpt lat="50.29117" lon="2.23921">
        <ele>45.8</ele>
        <time>2022-08-10T07:22:07Z</time>
      </trkpt>
      <trkpt lat="50.29113" lon="2.23897">
        <ele>48.68</ele>
        <time>2022-08-10T07:22:20Z</time>
      </trkpt>
      <trkpt lat="50.2911" lon="2.23865">
        <ele>52.53</ele>
        <time>2022-08-10T07:22:34Z</time>
      </trkpt>
      <trkpt lat="50.29101" lon="2.23841">
        <ele>53.97</ele>
        <time>2022-08-10T07:22:47Z</time>
      </trkpt>
      <trkpt lat="50.29087" lon="2.23824">
        <ele>54.93</ele>
        <time>2022-08-10T07:23:01Z</time>
      </trkpt>
      <trkpt lat="50.2907" lon="2.23821">
        <ele>53.49</ele>
        <time>2022-08-10T07:23:14Z</time>
      </trkpt>
      <trkpt lat="50.29056" lon="2.23818">
        <ele>52.53</ele>
        <time>2022-08-10T07:23:25Z</time>
      </trkpt>
      <trkpt lat="50.29036" lon="2.23817">
        <ele>53.01</ele>
        <time>2022-08-10T07:23:38Z</time>
      </trkpt>
      <trkpt lat="50.29033" lon="2.23815">
        <ele>53.49</ele>
        <time>2022-08-10T07:23:41Z</time>
      </trkpt>
      <trkpt lat="50.29024" lon="2.23825">
        <ele>53.01</ele>
        <time>2022-08-10T07:23:51Z</time>
      </trkpt>
      <trkpt lat="50.29021" lon="2.23833">
        <ele>52.05</ele>
        <time>2022-08-10T07:24:04Z</time>
      </trkpt>
      <trkpt lat="50.2902" lon="2.23834">
        <ele>51.57</ele>
        <time>2022-08-10T07:24:19Z</time>
      </trkpt>
      <trkpt lat="50.29019" lon="2.23833">
        <ele>53.01</ele>
        <time>2022-08-10T07:24:39Z</time>
      </trkpt>
      <trkpt lat="50.29019" lon="2.23833">
        <ele>53.97</ele>
        <time>2022-08-10T07:25:01Z</time>
      </trkpt>
      <trkpt lat="50.29019" lon="2.23834">
        <ele>53.49</ele>
        <time>2022-08-10T07:25:18Z</time>
      </trkpt>
      <trkpt lat="50.29019" lon="2.23834">
        <ele>53.49</ele>
        <time>2022-08-10T07:25:31Z</time>
      </trkpt>
      <trkpt lat="50.29014" lon="2.23846">
        <ele>52.05</ele>
        <time>2022-08-10T07:25:42Z</time>
      </trkpt>
      <trkpt lat="50.2901" lon="2.23862">
        <ele>48.2</ele>
        <time>2022-08-10T07:25:56Z</time>
      </trkpt>
      <trkpt lat="50.29006" lon="2.23864">
        <ele>48.68</ele>
        <time>2022-08-10T07:26:09Z</time>
      </trkpt>
      <trkpt lat="50.29" lon="2.23862">
        <ele>49.65</ele>
        <time>2022-08-10T07:26:17Z</time>
      </trkpt>
      <trkpt lat="50.28988" lon="2.23856">
        <ele>46.76</ele>
        <time>2022-08-10T07:26:28Z</time>
      </trkpt>
      <trkpt lat="50.28973" lon="2.23841">
        <ele>49.65</ele>
        <time>2022-08-10T07:26:40Z</time>
      </trkpt>
      <trkpt lat="50.28961" lon="2.23828">
        <ele>49.65</ele>
        <time>2022-08-10T07:26:51Z</time>
      </trkpt>
      <trkpt lat="50.28955" lon="2.23821">
        <ele>50.13</ele>
        <time>2022-08-10T07:26:58Z</time>
      </trkpt>
      <trkpt lat="50.28947" lon="2.23803">
        <ele>51.57</ele>
        <time>2022-08-10T07:27:09Z</time>
      </trkpt>
      <trkpt lat="50.28932" lon="2.2377">
        <ele>53.01</ele>
        <time>2022-08-10T07:27:24Z</time>
      </trkpt>
      <trkpt lat="50.28923" lon="2.23749">
        <ele>52.53</ele>
        <time>2022-08-10T07:27:36Z</time>
      </trkpt>
      <trkpt lat="50.28909" lon="2.23727">
        <ele>53.01</ele>
        <time>2022-08-10T07:27:50Z</time>
      </trkpt>
      <trkpt lat="50.28896" lon="2.23703">
        <ele>53.97</ele>
        <time>2022-08-10T07:28:03Z</time>
      </trkpt>
      <trkpt lat="50.28882" lon="2.2368">
        <ele>54.45</ele>
        <time>2022-08-10T07:28:17Z</time>
      </trkpt>
      <trkpt lat="50.28871" lon="2.23655">
        <ele>55.41</ele>
        <time>2022-08-10T07:28:30Z</time>
      </trkpt>
      <trkpt lat="50.28868" lon="2.23627">
        <ele>55.89</ele>
        <time>2022-08-10T07:28:43Z</time>
      </trkpt>
      <trkpt lat="50.28868" lon="2.23599">
        <ele>55.41</ele>
        <time>2022-08-10T07:28:56Z</time>
      </trkpt>
      <trkpt lat="50.28872" lon="2.23567">
        <ele>55.89</ele>
        <time>2022-08-10T07:29:10Z</time>
      </trkpt>
      <trkpt lat="50.28877" lon="2.23546">
        <ele>54.93</ele>
        <time>2022-08-10T07:29:20Z</time>
      </trkpt>
      <trkpt lat="50.28878" lon="2.23544">
        <ele>54.93</ele>
        <time>2022-08-10T07:29:21Z</time>
      </trkpt>
      <trkpt lat="50.28883" lon="2.23523">
        <ele>55.89</ele>
        <time>2022-08-10T07:29:32Z</time>
      </trkpt>
      <trkpt lat="50.28889" lon="2.23508">
        <ele>54.45</ele>
        <time>2022-08-10T07:29:41Z</time>
      </trkpt>
      <trkpt lat="50.28905" lon="2.23507">
        <ele>51.57</ele>
        <time>2022-08-10T07:29:52Z</time>
      </trkpt>
      <trkpt lat="50.28929" lon="2.2353">
        <ele>52.53</ele>
        <time>2022-08-10T07:30:08Z</time>
      </trkpt>
      <trkpt lat="50.28944" lon="2.23549">
        <ele>52.53</ele>
        <time>2022-08-10T07:30:22Z</time>
      </trkpt>
      <trkpt lat="50.28959" lon="2.23566">
        <ele>54.45</ele>
        <time>2022-08-10T07:30:35Z</time>
      </trkpt>
      <trkpt lat="50.2898" lon="2.23589">
        <ele>54.45</ele>
        <time>2022-08-10T07:30:53Z</time>
      </trkpt>
      <trkpt lat="50.28995" lon="2.23606">
        <ele>53.49</ele>
        <time>2022-08-10T07:31:07Z</time>
      </trkpt>
      <trkpt lat="50.29012" lon="2.23624">
        <ele>54.93</ele>
        <time>2022-08-10T07:31:22Z</time>
      </trkpt>
      <trkpt lat="50.29025" lon="2.23641">
        <ele>54.93</ele>
        <time>2022-08-10T07:31:34Z</time>
      </trkpt>
      <trkpt lat="50.29039" lon="2.23654">
        <ele>54.45</ele>
        <time>2022-08-10T07:31:47Z</time>
      </trkpt>
      <trkpt lat="50.29054" lon="2.2367">
        <ele>55.89</ele>
        <time>2022-08-10T07:32:01Z</time>
      </trkpt>
      <trkpt lat="50.29071" lon="2.2369">
        <ele>56.37</ele>
        <time>2022-08-10T07:32:17Z</time>
      </trkpt>
      <trkpt lat="50.29091" lon="2.23713">
        <ele>55.89</ele>
        <time>2022-08-10T07:32:35Z</time>
      </trkpt>
      <trkpt lat="50.29106" lon="2.23732">
        <ele>55.89</ele>
        <time>2022-08-10T07:32:49Z</time>
      </trkpt>
      <trkpt lat="50.29121" lon="2.23757">
        <ele>56.37</ele>
        <time>2022-08-10T07:33:04Z</time>
      </trkpt>
      <trkpt lat="50.29141" lon="2.23781">
        <ele>58.3</ele>
        <time>2022-08-10T07:33:21Z</time>
      </trkpt>
      <trkpt lat="50.29159" lon="2.238">
        <ele>59.26</ele>
        <time>2022-08-10T07:33:39Z</time>
      </trkpt>
      <trkpt lat="50.29168" lon="2.23811">
        <ele>61.66</ele>
        <time>2022-08-10T07:33:49Z</time>
      </trkpt>
      <trkpt lat="50.29181" lon="2.23829">
        <ele>62.14</ele>
        <time>2022-08-10T07:34:01Z</time>
      </trkpt>
      <trkpt lat="50.29192" lon="2.23841">
        <ele>64.55</ele>
        <time>2022-08-10T07:34:11Z</time>
      </trkpt>
      <trkpt lat="50.29204" lon="2.23835">
        <ele>64.55</ele>
        <time>2022-08-10T07:34:23Z</time>
      </trkpt>
      <trkpt lat="50.29213" lon="2.23808">
        <ele>66.47</ele>
        <time>2022-08-10T07:34:38Z</time>
      </trkpt>
      <trkpt lat="50.29224" lon="2.23785">
        <ele>66.47</ele>
        <time>2022-08-10T07:34:52Z</time>
      </trkpt>
      <trkpt lat="50.2923" lon="2.2377">
        <ele>66.95</ele>
        <time>2022-08-10T07:35:00Z</time>
      </trkpt>
      <trkpt lat="50.29235" lon="2.23761">
        <ele>66.95</ele>
        <time>2022-08-10T07:35:05Z</time>
      </trkpt>
      <trkpt lat="50.29248" lon="2.23733">
        <ele>67.91</ele>
        <time>2022-08-10T07:35:22Z</time>
      </trkpt>
      <trkpt lat="50.29261" lon="2.23702">
        <ele>66.95</ele>
        <time>2022-08-10T07:35:39Z</time>
      </trkpt>
      <trkpt lat="50.29269" lon="2.23671">
        <ele>67.43</ele>
        <time>2022-08-10T07:35:54Z</time>
      </trkpt>
      <trkpt lat="50.29282" lon="2.23639">
        <ele>66.47</ele>
        <time>2022-08-10T07:36:09Z</time>
      </trkpt>
      <trkpt lat="50.29299" lon="2.23609">
        <ele>65.03</ele>
        <time>2022-08-10T07:36:27Z</time>
      </trkpt>
      <trkpt lat="50.29315" lon="2.23584">
        <ele>65.99</ele>
        <time>2022-08-10T07:36:43Z</time>
      </trkpt>
      <trkpt lat="50.29329" lon="2.23556">
        <ele>69.35</ele>
        <time>2022-08-10T07:36:59Z</time>
      </trkpt>
      <trkpt lat="50.29349" lon="2.23526">
        <ele>72.24</ele>
        <time>2022-08-10T07:37:18Z</time>
      </trkpt>
      <trkpt lat="50.29365" lon="2.23508">
        <ele>71.76</ele>
        <time>2022-08-10T07:37:32Z</time>
      </trkpt>
      <trkpt lat="50.2938" lon="2.23493">
        <ele>72.24</ele>
        <time>2022-08-10T07:37:45Z</time>
      </trkpt>
      <trkpt lat="50.29391" lon="2.23473">
        <ele>73.2</ele>
        <time>2022-08-10T07:37:58Z</time>
      </trkpt>
      <trkpt lat="50.29401" lon="2.23446">
        <ele>73.2</ele>
        <time>2022-08-10T07:38:12Z</time>
      </trkpt>
      <trkpt lat="50.2941" lon="2.23415">
        <ele>72.72</ele>
        <time>2022-08-10T07:38:28Z</time>
      </trkpt>
      <trkpt lat="50.2942" lon="2.2338">
        <ele>70.79</ele>
        <time>2022-08-10T07:38:46Z</time>
      </trkpt>
      <trkpt lat="50.29427" lon="2.23356">
        <ele>71.27</ele>
        <time>2022-08-10T07:38:59Z</time>
      </trkpt>
      <trkpt lat="50.29437" lon="2.23325">
        <ele>71.27</ele>
        <time>2022-08-10T07:39:15Z</time>
      </trkpt>
      <trkpt lat="50.29445" lon="2.23305">
        <ele>71.27</ele>
        <time>2022-08-10T07:39:26Z</time>
      </trkpt>
      <trkpt lat="50.29456" lon="2.23281">
        <ele>69.35</ele>
        <time>2022-08-10T07:39:39Z</time>
      </trkpt>
      <trkpt lat="50.29471" lon="2.23257">
        <ele>67.91</ele>
        <time>2022-08-10T07:39:54Z</time>
      </trkpt>
      <trkpt lat="50.29482" lon="2.23237">
        <ele>68.39</ele>
        <time>2022-08-10T07:40:06Z</time>
      </trkpt>
      <trkpt lat="50.29497" lon="2.23212">
        <ele>68.87</ele>
        <time>2022-08-10T07:40:22Z</time>
      </trkpt>
      <trkpt lat="50.29511" lon="2.23189">
        <ele>67.91</ele>
        <time>2022-08-10T07:40:37Z</time>
      </trkpt>
      <trkpt lat="50.29527" lon="2.23159">
        <ele>68.39</ele>
        <time>2022-08-10T07:40:54Z</time>
      </trkpt>
      <trkpt lat="50.29541" lon="2.23133">
        <ele>71.27</ele>
        <time>2022-08-10T07:41:09Z</time>
      </trkpt>
      <trkpt lat="50.29558" lon="2.23105">
        <ele>70.79</ele>
        <time>2022-08-10T07:41:26Z</time>
      </trkpt>
      <trkpt lat="50.29569" lon="2.23086">
        <ele>69.35</ele>
        <time>2022-08-10T07:41:38Z</time>
      </trkpt>
      <trkpt lat="50.29583" lon="2.23062">
        <ele>66.95</ele>
        <time>2022-08-10T07:41:54Z</time>
      </trkpt>
      <trkpt lat="50.29599" lon="2.23036">
        <ele>64.55</ele>
        <time>2022-08-10T07:42:10Z</time>
      </trkpt>
      <trkpt lat="50.29615" lon="2.23014">
        <ele>64.07</ele>
        <time>2022-08-10T07:42:25Z</time>
      </trkpt>
      <trkpt lat="50.29629" lon="2.22989">
        <ele>63.1</ele>
        <time>2022-08-10T07:42:40Z</time>
      </trkpt>
      <trkpt lat="50.2964" lon="2.22969">
        <ele>62.14</ele>
        <time>2022-08-10T07:42:52Z</time>
      </trkpt>
      <trkpt lat="50.29654" lon="2.22939">
        <ele>61.18</ele>
        <time>2022-08-10T07:43:09Z</time>
      </trkpt>
      <trkpt lat="50.29669" lon="2.2291">
        <ele>61.66</ele>
        <time>2022-08-10T07:43:26Z</time>
      </trkpt>
      <trkpt lat="50.29684" lon="2.22886">
        <ele>61.66</ele>
        <time>2022-08-10T07:43:40Z</time>
      </trkpt>
      <trkpt lat="50.29698" lon="2.22861">
        <ele>59.74</ele>
        <time>2022-08-10T07:43:55Z</time>
      </trkpt>
      <trkpt lat="50.29716" lon="2.22842">
        <ele>58.3</ele>
        <time>2022-08-10T07:44:10Z</time>
      </trkpt>
      <trkpt lat="50.29734" lon="2.22835">
        <ele>56.86</ele>
        <time>2022-08-10T07:44:23Z</time>
      </trkpt>
      <trkpt lat="50.29746" lon="2.22834">
        <ele>53.49</ele>
        <time>2022-08-10T07:44:34Z</time>
      </trkpt>
      <trkpt lat="50.29753" lon="2.22838">
        <ele>48.68</ele>
        <time>2022-08-10T07:44:45Z</time>
      </trkpt>
      <trkpt lat="50.29769" lon="2.22848">
        <ele>45.8</ele>
        <time>2022-08-10T07:44:57Z</time>
      </trkpt>
      <trkpt lat="50.29774" lon="2.22851">
        <ele>45.8</ele>
        <time>2022-08-10T07:45:01Z</time>
      </trkpt>
      <trkpt lat="50.29777" lon="2.22852">
        <ele>45.32</ele>
        <time>2022-08-10T07:45:03Z</time>
      </trkpt>
      <trkpt lat="50.29794" lon="2.22869">
        <ele>42.92</ele>
        <time>2022-08-10T07:45:17Z</time>
      </trkpt>
      <trkpt lat="50.29811" lon="2.22895">
        <ele>41.47</ele>
        <time>2022-08-10T07:45:31Z</time>
      </trkpt>
      <trkpt lat="50.29825" lon="2.22917">
        <ele>40.51</ele>
        <time>2022-08-10T07:45:44Z</time>
      </trkpt>
      <trkpt lat="50.29834" lon="2.22944">
        <ele>37.63</ele>
        <time>2022-08-10T07:45:58Z</time>
      </trkpt>
      <trkpt lat="50.29834" lon="2.22946">
        <ele>37.15</ele>
        <time>2022-08-10T07:45:59Z</time>
      </trkpt>
      <trkpt lat="50.29851" lon="2.22973">
        <ele>39.07</ele>
        <time>2022-08-10T07:46:14Z</time>
      </trkpt>
      <trkpt lat="50.29866" lon="2.22993">
        <ele>43.88</ele>
        <time>2022-08-10T07:46:25Z</time>
      </trkpt>
      <trkpt lat="50.29873" lon="2.23003">
        <ele>45.8</ele>
        <time>2022-08-10T07:46:34Z</time>
      </trkpt>
      <trkpt lat="50.29874" lon="2.23003">
        <ele>49.16</ele>
        <time>2022-08-10T07:46:50Z</time>
      </trkpt>
      <trkpt lat="50.29876" lon="2.23004">
        <ele>51.57</ele>
        <time>2022-08-10T07:47:06Z</time>
      </trkpt>
      <trkpt lat="50.2988" lon="2.23005">
        <ele>53.49</ele>
        <time>2022-08-10T07:47:19Z</time>
      </trkpt>
      <trkpt lat="50.2988" lon="2.23005">
        <ele>53.97</ele>
        <time>2022-08-10T07:47:30Z</time>
      </trkpt>
      <trkpt lat="50.29881" lon="2.23005">
        <ele>55.41</ele>
        <time>2022-08-10T07:47:44Z</time>
      </trkpt>
      <trkpt lat="50.29882" lon="2.23008">
        <ele>55.89</ele>
        <time>2022-08-10T07:47:58Z</time>
      </trkpt>
      <trkpt lat="50.29884" lon="2.2301">
        <ele>55.41</ele>
        <time>2022-08-10T07:48:09Z</time>
      </trkpt>
      <trkpt lat="50.29886" lon="2.2301">
        <ele>55.41</ele>
        <time>2022-08-10T07:48:23Z</time>
      </trkpt>
      <trkpt lat="50.29888" lon="2.2301">
        <ele>56.37</ele>
        <time>2022-08-10T07:48:44Z</time>
      </trkpt>
      <trkpt lat="50.29889" lon="2.23011">
        <ele>56.37</ele>
        <time>2022-08-10T07:49:00Z</time>
      </trkpt>
      <trkpt lat="50.29888" lon="2.2301">
        <ele>57.34</ele>
        <time>2022-08-10T07:49:11Z</time>
      </trkpt>
      <trkpt lat="50.29888" lon="2.2301">
        <ele>56.86</ele>
        <time>2022-08-10T07:49:27Z</time>
      </trkpt>
      <trkpt lat="50.29889" lon="2.2301">
        <ele>56.37</ele>
        <time>2022-08-10T07:49:44Z</time>
      </trkpt>
      <trkpt lat="50.2989" lon="2.23013">
        <ele>56.37</ele>
        <time>2022-08-10T07:50:00Z</time>
      </trkpt>
      <trkpt lat="50.29895" lon="2.23027">
        <ele>53.01</ele>
        <time>2022-08-10T07:50:12Z</time>
      </trkpt>
      <trkpt lat="50.29901" lon="2.23042">
        <ele>51.09</ele>
        <time>2022-08-10T07:50:21Z</time>
      </trkpt>
      <trkpt lat="50.29909" lon="2.23065">
        <ele>48.2</ele>
        <time>2022-08-10T07:50:34Z</time>
      </trkpt>
      <trkpt lat="50.29915" lon="2.23086">
        <ele>46.76</ele>
        <time>2022-08-10T07:50:46Z</time>
      </trkpt>
      <trkpt lat="50.2992" lon="2.23112">
        <ele>47.24</ele>
        <time>2022-08-10T07:50:58Z</time>
      </trkpt>
      <trkpt lat="50.29925" lon="2.23132">
        <ele>45.32</ele>
        <time>2022-08-10T07:51:08Z</time>
      </trkpt>
      <trkpt lat="50.29932" lon="2.23153">
        <ele>42.92</ele>
        <time>2022-08-10T07:51:19Z</time>
      </trkpt>
      <trkpt lat="50.29941" lon="2.2317">
        <ele>42.92</ele>
        <time>2022-08-10T07:51:30Z</time>
      </trkpt>
      <trkpt lat="50.29949" lon="2.2319">
        <ele>41.47</ele>
        <time>2022-08-10T07:51:42Z</time>
      </trkpt>
      <trkpt lat="50.29958" lon="2.23202">
        <ele>41.47</ele>
        <time>2022-08-10T07:51:50Z</time>
      </trkpt>
      <trkpt lat="50.2997" lon="2.23222">
        <ele>40.99</ele>
        <time>2022-08-10T07:52:03Z</time>
      </trkpt>
      <trkpt lat="50.2998" lon="2.23236">
        <ele>40.03</ele>
        <time>2022-08-10T07:52:13Z</time>
      </trkpt>
      <trkpt lat="50.29986" lon="2.23245">
        <ele>38.11</ele>
        <time>2022-08-10T07:52:20Z</time>
      </trkpt>
      <trkpt lat="50.29999" lon="2.23266">
        <ele>34.74</ele>
        <time>2022-08-10T07:52:34Z</time>
      </trkpt>
      <trkpt lat="50.30008" lon="2.23281">
        <ele>30.9</ele>
        <time>2022-08-10T07:52:47Z</time>
      </trkpt>
      <trkpt lat="50.30015" lon="2.2329">
        <ele>31.38</ele>
        <time>2022-08-10T07:52:59Z</time>
      </trkpt>
      <trkpt lat="50.30026" lon="2.23301">
        <ele>32.34</ele>
        <time>2022-08-10T07:53:11Z</time>
      </trkpt>
      <trkpt lat="50.30055" lon="2.23311">
        <ele>43.88</ele>
        <time>2022-08-10T07:53:23Z</time>
      </trkpt>
      <trkpt lat="50.30075" lon="2.23327">
        <ele>47.72</ele>
        <time>2022-08-10T07:53:35Z</time>
      </trkpt>
      <trkpt lat="50.30083" lon="2.2334">
        <ele>44.36</ele>
        <time>2022-08-10T07:53:46Z</time>
      </trkpt>
      <trkpt lat="50.30088" lon="2.23352">
        <ele>39.55</ele>
        <time>2022-08-10T07:53:54Z</time>
      </trkpt>
      <trkpt lat="50.30096" lon="2.23366">
        <ele>37.15</ele>
        <time>2022-08-10T07:54:05Z</time>
      </trkpt>
      <trkpt lat="50.30115" lon="2.23383">
        <ele>40.51</ele>
        <time>2022-08-10T07:54:18Z</time>
      </trkpt>
      <trkpt lat="50.30134" lon="2.23398">
        <ele>45.8</ele>
        <time>2022-08-10T07:54:30Z</time>
      </trkpt>
      <trkpt lat="50.30149" lon="2.23413">
        <ele>48.2</ele>
        <time>2022-08-10T07:54:43Z</time>
      </trkpt>
      <trkpt lat="50.30165" lon="2.23433">
        <ele>53.49</ele>
        <time>2022-08-10T07:54:56Z</time>
      </trkpt>
      <trkpt lat="50.30175" lon="2.23447">
        <ele>53.01</ele>
        <time>2022-08-10T07:55:06Z</time>
      </trkpt>
      <trkpt lat="50.30184" lon="2.23463">
        <ele>52.05</ele>
        <time>2022-08-10T07:55:17Z</time>
      </trkpt>
      <trkpt lat="50.30189" lon="2.23473">
        <ele>49.65</ele>
        <time>2022-08-10T07:55:24Z</time>
      </trkpt>
      <trkpt lat="50.30198" lon="2.23497">
        <ele>47.72</ele>
        <time>2022-08-10T07:55:38Z</time>
      </trkpt>
      <trkpt lat="50.302" lon="2.23512">
        <ele>44.84</ele>
        <time>2022-08-10T07:55:47Z</time>
      </trkpt>
      <trkpt lat="50.3021" lon="2.2354">
        <ele>42.44</ele>
        <time>2022-08-10T07:56:03Z</time>
      </trkpt>
      <trkpt lat="50.30217" lon="2.23562">
        <ele>42.44</ele>
        <time>2022-08-10T07:56:16Z</time>
      </trkpt>
      <trkpt lat="50.30224" lon="2.23582">
        <ele>42.44</ele>
        <time>2022-08-10T07:56:26Z</time>
      </trkpt>
      <trkpt lat="50.3023" lon="2.23599">
        <ele>44.84</ele>
        <time>2022-08-10T07:56:36Z</time>
      </trkpt>
      <trkpt lat="50.30237" lon="2.23616">
        <ele>44.84</ele>
        <time>2022-08-10T07:56:47Z</time>
      </trkpt>
      <trkpt lat="50.30242" lon="2.23631">
        <ele>44.36</ele>
        <time>2022-08-10T07:56:58Z</time>
      </trkpt>
      <trkpt lat="50.30247" lon="2.23646">
        <ele>43.88</ele>
        <time>2022-08-10T07:57:07Z</time>
      </trkpt>
      <trkpt lat="50.30255" lon="2.23667">
        <ele>41.47</ele>
        <time>2022-08-10T07:57:18Z</time>
      </trkpt>
      <trkpt lat="50.30256" lon="2.23671">
        <ele>40.99</ele>
        <time>2022-08-10T07:57:20Z</time>
      </trkpt>
      <trkpt lat="50.30262" lon="2.23695">
        <ele>41.95</ele>
        <time>2022-08-10T07:57:34Z</time>
      </trkpt>
      <trkpt lat="50.30264" lon="2.23699">
        <ele>41.95</ele>
        <time>2022-08-10T07:57:36Z</time>
      </trkpt>
      <trkpt lat="50.30267" lon="2.23706">
        <ele>42.44</ele>
        <time>2022-08-10T07:57:40Z</time>
      </trkpt>
      <trkpt lat="50.30274" lon="2.23723">
        <ele>44.36</ele>
        <time>2022-08-10T07:57:49Z</time>
      </trkpt>
      <trkpt lat="50.3028" lon="2.23738">
        <ele>43.88</ele>
        <time>2022-08-10T07:57:58Z</time>
      </trkpt>
      <trkpt lat="50.30286" lon="2.23758">
        <ele>44.84</ele>
        <time>2022-08-10T07:58:10Z</time>
      </trkpt>
      <trkpt lat="50.30291" lon="2.23776">
        <ele>42.92</ele>
        <time>2022-08-10T07:58:20Z</time>
      </trkpt>
      <trkpt lat="50.30297" lon="2.23796">
        <ele>40.99</ele>
        <time>2022-08-10T07:58:32Z</time>
      </trkpt>
      <trkpt lat="50.303" lon="2.23809">
        <ele>39.55</ele>
        <time>2022-08-10T07:58:39Z</time>
      </trkpt>
      <trkpt lat="50.30308" lon="2.23832">
        <ele>38.11</ele>
        <time>2022-08-10T07:58:52Z</time>
      </trkpt>
      <trkpt lat="50.30313" lon="2.23846">
        <ele>37.63</ele>
        <time>2022-08-10T07:59:01Z</time>
      </trkpt>
      <trkpt lat="50.30317" lon="2.23861">
        <ele>36.67</ele>
        <time>2022-08-10T07:59:08Z</time>
      </trkpt>
      <trkpt lat="50.30323" lon="2.23881">
        <ele>36.67</ele>
        <time>2022-08-10T07:59:19Z</time>
      </trkpt>
      <trkpt lat="50.3033" lon="2.23902">
        <ele>40.51</ele>
        <time>2022-08-10T07:59:31Z</time>
      </trkpt>
      <trkpt lat="50.30336" lon="2.23922">
        <ele>39.55</ele>
        <time>2022-08-10T07:59:43Z</time>
      </trkpt>
      <trkpt lat="50.30344" lon="2.23945">
        <ele>44.36</ele>
        <time>2022-08-10T07:59:55Z</time>
      </trkpt>
      <trkpt lat="50.30353" lon="2.23975">
        <ele>50.13</ele>
        <time>2022-08-10T08:00:09Z</time>
      </trkpt>
      <trkpt lat="50.30359" lon="2.23996">
        <ele>53.01</ele>
        <time>2022-08-10T08:00:20Z</time>
      </trkpt>
      <trkpt lat="50.3036" lon="2.24">
        <ele>53.49</ele>
        <time>2022-08-10T08:00:22Z</time>
      </trkpt>
      <trkpt lat="50.30368" lon="2.24024">
        <ele>57.34</ele>
        <time>2022-08-10T08:00:34Z</time>
      </trkpt>
      <trkpt lat="50.30377" lon="2.24045">
        <ele>60.7</ele>
        <time>2022-08-10T08:00:46Z</time>
      </trkpt>
      <trkpt lat="50.30386" lon="2.24063">
        <ele>62.62</ele>
        <time>2022-08-10T08:00:57Z</time>
      </trkpt>
      <trkpt lat="50.30398" lon="2.24082">
        <ele>64.07</ele>
        <time>2022-08-10T08:01:09Z</time>
      </trkpt>
      <trkpt lat="50.30411" lon="2.24108">
        <ele>65.99</ele>
        <time>2022-08-10T08:01:24Z</time>
      </trkpt>
      <trkpt lat="50.30417" lon="2.24119">
        <ele>66.47</ele>
        <time>2022-08-10T08:01:31Z</time>
      </trkpt>
      <trkpt lat="50.30427" lon="2.2414">
        <ele>66.47</ele>
        <time>2022-08-10T08:01:45Z</time>
      </trkpt>
      <trkpt lat="50.30438" lon="2.2416">
        <ele>66.47</ele>
        <time>2022-08-10T08:01:58Z</time>
      </trkpt>
      <trkpt lat="50.30447" lon="2.24178">
        <ele>66.47</ele>
        <time>2022-08-10T08:02:10Z</time>
      </trkpt>
      <trkpt lat="50.30457" lon="2.24201">
        <ele>65.99</ele>
        <time>2022-08-10T08:02:24Z</time>
      </trkpt>
      <trkpt lat="50.30467" lon="2.24221">
        <ele>65.99</ele>
        <time>2022-08-10T08:02:37Z</time>
      </trkpt>
      <trkpt lat="50.30475" lon="2.24241">
        <ele>65.03</ele>
        <time>2022-08-10T08:02:49Z</time>
      </trkpt>
      <trkpt lat="50.30482" lon="2.24261">
        <ele>65.03</ele>
        <time>2022-08-10T08:03:01Z</time>
      </trkpt>
      <trkpt lat="50.30491" lon="2.24285">
        <ele>64.55</ele>
        <time>2022-08-10T08:03:14Z</time>
      </trkpt>
      <trkpt lat="50.305" lon="2.24308">
        <ele>64.07</ele>
        <time>2022-08-10T08:03:28Z</time>
      </trkpt>
      <trkpt lat="50.30509" lon="2.2433">
        <ele>65.99</ele>
        <time>2022-08-10T08:03:42Z</time>
      </trkpt>
      <trkpt lat="50.30517" lon="2.24346">
        <ele>68.39</ele>
        <time>2022-08-10T08:03:54Z</time>
      </trkpt>
      <trkpt lat="50.30526" lon="2.24361">
        <ele>67.91</ele>
        <time>2022-08-10T08:04:06Z</time>
      </trkpt>
      <trkpt lat="50.30532" lon="2.24376">
        <ele>66.47</ele>
        <time>2022-08-10T08:04:15Z</time>
      </trkpt>
      <trkpt lat="50.30542" lon="2.24404">
        <ele>63.58</ele>
        <time>2022-08-10T08:04:31Z</time>
      </trkpt>
      <trkpt lat="50.30548" lon="2.24418">
        <ele>62.14</ele>
        <time>2022-08-10T08:04:42Z</time>
      </trkpt>
      <trkpt lat="50.30556" lon="2.24436">
        <ele>61.66</ele>
        <time>2022-08-10T08:04:53Z</time>
      </trkpt>
      <trkpt lat="50.30564" lon="2.24452">
        <ele>62.14</ele>
        <time>2022-08-10T08:05:03Z</time>
      </trkpt>
      <trkpt lat="50.30574" lon="2.24475">
        <ele>61.18</ele>
        <time>2022-08-10T08:05:16Z</time>
      </trkpt>
      <trkpt lat="50.30581" lon="2.24489">
        <ele>59.74</ele>
        <time>2022-08-10T08:05:24Z</time>
      </trkpt>
      <trkpt lat="50.30589" lon="2.245">
        <ele>59.74</ele>
        <time>2022-08-10T08:05:31Z</time>
      </trkpt>
      <trkpt lat="50.30599" lon="2.24513">
        <ele>62.62</ele>
        <time>2022-08-10T08:05:41Z</time>
      </trkpt>
      <trkpt lat="50.30608" lon="2.24525">
        <ele>63.58</ele>
        <time>2022-08-10T08:05:53Z</time>
      </trkpt>
      <trkpt lat="50.3062" lon="2.24533">
        <ele>64.07</ele>
        <time>2022-08-10T08:06:05Z</time>
      </trkpt>
      <trkpt lat="50.3063" lon="2.24534">
        <ele>64.07</ele>
        <time>2022-08-10T08:06:12Z</time>
      </trkpt>
      <trkpt lat="50.30649" lon="2.24529">
        <ele>66.47</ele>
        <time>2022-08-10T08:06:23Z</time>
      </trkpt>
      <trkpt lat="50.30665" lon="2.24522">
        <ele>70.31</ele>
        <time>2022-08-10T08:06:35Z</time>
      </trkpt>
      <trkpt lat="50.30678" lon="2.24517">
        <ele>69.83</ele>
        <time>2022-08-10T08:06:45Z</time>
      </trkpt>
      <trkpt lat="50.30693" lon="2.24517">
        <ele>69.35</ele>
        <time>2022-08-10T08:06:57Z</time>
      </trkpt>
      <trkpt lat="50.30707" lon="2.24519">
        <ele>70.31</ele>
        <time>2022-08-10T08:07:08Z</time>
      </trkpt>
      <trkpt lat="50.3072" lon="2.2452">
        <ele>72.24</ele>
        <time>2022-08-10T08:07:18Z</time>
      </trkpt>
      <trkpt lat="50.3073" lon="2.24523">
        <ele>72.24</ele>
        <time>2022-08-10T08:07:30Z</time>
      </trkpt>
      <trkpt lat="50.30734" lon="2.24525">
        <ele>71.76</ele>
        <time>2022-08-10T08:07:34Z</time>
      </trkpt>
      <trkpt lat="50.30748" lon="2.24532">
        <ele>70.79</ele>
        <time>2022-08-10T08:07:45Z</time>
      </trkpt>
      <trkpt lat="50.30764" lon="2.24537">
        <ele>66.95</ele>
        <time>2022-08-10T08:07:58Z</time>
      </trkpt>
      <trkpt lat="50.30779" lon="2.24543">
        <ele>67.43</ele>
        <time>2022-08-10T08:08:13Z</time>
      </trkpt>
      <trkpt lat="50.30794" lon="2.24554">
        <ele>68.87</ele>
        <time>2022-08-10T08:08:25Z</time>
      </trkpt>
      <trkpt lat="50.30795" lon="2.24555">
        <ele>68.87</ele>
        <time>2022-08-10T08:08:26Z</time>
      </trkpt>
      <trkpt lat="50.30799" lon="2.24558">
        <ele>68.39</ele>
        <time>2022-08-10T08:08:30Z</time>
      </trkpt>
      <trkpt lat="50.30814" lon="2.2457">
        <ele>65.03</ele>
        <time>2022-08-10T08:08:42Z</time>
      </trkpt>
      <trkpt lat="50.30824" lon="2.24578">
        <ele>63.1</ele>
        <time>2022-08-10T08:08:52Z</time>
      </trkpt>
      <trkpt lat="50.30837" lon="2.2459">
        <ele>63.1</ele>
        <time>2022-08-10T08:09:03Z</time>
      </trkpt>
      <trkpt lat="50.30847" lon="2.246">
        <ele>61.66</ele>
        <time>2022-08-10T08:09:13Z</time>
      </trkpt>
      <trkpt lat="50.30857" lon="2.24615">
        <ele>62.14</ele>
        <time>2022-08-10T08:09:25Z</time>
      </trkpt>
      <trkpt lat="50.30863" lon="2.24623">
        <ele>61.66</ele>
        <time>2022-08-10T08:09:31Z</time>
      </trkpt>
      <trkpt lat="50.30871" lon="2.24637">
        <ele>61.18</ele>
        <time>2022-08-10T08:09:42Z</time>
      </trkpt>
      <trkpt lat="50.30874" lon="2.24638">
        <ele>61.18</ele>
        <time>2022-08-10T08:09:44Z</time>
      </trkpt>
      <trkpt lat="50.30878" lon="2.2464">
        <ele>61.18</ele>
        <time>2022-08-10T08:09:47Z</time>
      </trkpt>
      <trkpt lat="50.30888" lon="2.24648">
        <ele>62.62</ele>
        <time>2022-08-10T08:09:57Z</time>
      </trkpt>
      <trkpt lat="50.30899" lon="2.24659">
        <ele>65.03</ele>
        <time>2022-08-10T08:10:08Z</time>
      </trkpt>
      <trkpt lat="50.30907" lon="2.24665">
        <ele>65.51</ele>
        <time>2022-08-10T08:10:19Z</time>
      </trkpt>
      <trkpt lat="50.30923" lon="2.24677">
        <ele>64.07</ele>
        <time>2022-08-10T08:10:33Z</time>
      </trkpt>
      <trkpt lat="50.30937" lon="2.24685">
        <ele>65.03</ele>
        <time>2022-08-10T08:10:44Z</time>
      </trkpt>
      <trkpt lat="50.30952" lon="2.24696">
        <ele>66.47</ele>
        <time>2022-08-10T08:10:56Z</time>
      </trkpt>
      <trkpt lat="50.30962" lon="2.2471">
        <ele>66.47</ele>
        <time>2022-08-10T08:11:09Z</time>
      </trkpt>
      <trkpt lat="50.30967" lon="2.24722">
        <ele>66.47</ele>
        <time>2022-08-10T08:11:18Z</time>
      </trkpt>
      <trkpt lat="50.30974" lon="2.24747">
        <ele>65.51</ele>
        <time>2022-08-10T08:11:31Z</time>
      </trkpt>
      <trkpt lat="50.30978" lon="2.24764">
        <ele>65.51</ele>
        <time>2022-08-10T08:11:41Z</time>
      </trkpt>
      <trkpt lat="50.3098" lon="2.24785">
        <ele>66.47</ele>
        <time>2022-08-10T08:11:53Z</time>
      </trkpt>
      <trkpt lat="50.30981" lon="2.24788">
        <ele>66.47</ele>
        <time>2022-08-10T08:11:55Z</time>
      </trkpt>
      <trkpt lat="50.30983" lon="2.24808">
        <ele>65.03</ele>
        <time>2022-08-10T08:12:06Z</time>
      </trkpt>
      <trkpt lat="50.30985" lon="2.24821">
        <ele>65.51</ele>
        <time>2022-08-10T08:12:17Z</time>
      </trkpt>
      <trkpt lat="50.30988" lon="2.24844">
        <ele>67.43</ele>
        <time>2022-08-10T08:12:31Z</time>
      </trkpt>
      <trkpt lat="50.30994" lon="2.2487">
        <ele>67.43</ele>
        <time>2022-08-10T08:12:42Z</time>
      </trkpt>
      <trkpt lat="50.30997" lon="2.24891">
        <ele>66.95</ele>
        <time>2022-08-10T08:12:53Z</time>
      </trkpt>
      <trkpt lat="50.31001" lon="2.24908">
        <ele>66.47</ele>
        <time>2022-08-10T08:13:02Z</time>
      </trkpt>
      <trkpt lat="50.31008" lon="2.24917">
        <ele>67.91</ele>
        <time>2022-08-10T08:13:13Z</time>
      </trkpt>
      <trkpt lat="50.31015" lon="2.24926">
        <ele>66.47</ele>
        <time>2022-08-10T08:13:23Z</time>
      </trkpt>
      <trkpt lat="50.31023" lon="2.24934">
        <ele>65.51</ele>
        <time>2022-08-10T08:13:35Z</time>
      </trkpt>
      <trkpt lat="50.31034" lon="2.24936">
        <ele>64.55</ele>
        <time>2022-08-10T08:13:49Z</time>
      </trkpt>
      <trkpt lat="50.31037" lon="2.24937">
        <ele>65.51</ele>
        <time>2022-08-10T08:14:00Z</time>
      </trkpt>
      <trkpt lat="50.31037" lon="2.24936">
        <ele>65.99</ele>
        <time>2022-08-10T08:14:15Z</time>
      </trkpt>
      <trkpt lat="50.31036" lon="2.24935">
        <ele>66.95</ele>
        <time>2022-08-10T08:14:31Z</time>
      </trkpt>
      <trkpt lat="50.31037" lon="2.24935">
        <ele>66.95</ele>
        <time>2022-08-10T08:14:45Z</time>
      </trkpt>
      <trkpt lat="50.31037" lon="2.24934">
        <ele>67.91</ele>
        <time>2022-08-10T08:15:05Z</time>
      </trkpt>
      <trkpt lat="50.31037" lon="2.24933">
        <ele>68.39</ele>
        <time>2022-08-10T08:15:20Z</time>
      </trkpt>
      <trkpt lat="50.31037" lon="2.24932">
        <ele>69.35</ele>
        <time>2022-08-10T08:15:34Z</time>
      </trkpt>
      <trkpt lat="50.31039" lon="2.2494">
        <ele>69.35</ele>
        <time>2022-08-10T08:15:45Z</time>
      </trkpt>
      <trkpt lat="50.31042" lon="2.24952">
        <ele>69.35</ele>
        <time>2022-08-10T08:15:55Z</time>
      </trkpt>
      <trkpt lat="50.31046" lon="2.24962">
        <ele>69.35</ele>
        <time>2022-08-10T08:16:01Z</time>
      </trkpt>
      <trkpt lat="50.31052" lon="2.2497">
        <ele>70.31</ele>
        <time>2022-08-10T08:16:07Z</time>
      </trkpt>
      <trkpt lat="50.3106" lon="2.24983">
        <ele>71.76</ele>
        <time>2022-08-10T08:16:15Z</time>
      </trkpt>
      <trkpt lat="50.31073" lon="2.25001">
        <ele>73.2</ele>
        <time>2022-08-10T08:16:27Z</time>
      </trkpt>
      <trkpt lat="50.31087" lon="2.25009">
        <ele>76.56</ele>
        <time>2022-08-10T08:16:38Z</time>
      </trkpt>
      <trkpt lat="50.31097" lon="2.2501">
        <ele>76.08</ele>
        <time>2022-08-10T08:16:48Z</time>
      </trkpt>
      <trkpt lat="50.31108" lon="2.25025">
        <ele>73.2</ele>
        <time>2022-08-10T08:17:00Z</time>
      </trkpt>
      <trkpt lat="50.31115" lon="2.25044">
        <ele>71.27</ele>
        <time>2022-08-10T08:17:12Z</time>
      </trkpt>
      <trkpt lat="50.31125" lon="2.25062">
        <ele>70.31</ele>
        <time>2022-08-10T08:17:24Z</time>
      </trkpt>
      <trkpt lat="50.31132" lon="2.25074">
        <ele>69.83</ele>
        <time>2022-08-10T08:17:33Z</time>
      </trkpt>
      <trkpt lat="50.31139" lon="2.25086">
        <ele>68.39</ele>
        <time>2022-08-10T08:17:43Z</time>
      </trkpt>
      <trkpt lat="50.31146" lon="2.25102">
        <ele>65.99</ele>
        <time>2022-08-10T08:17:55Z</time>
      </trkpt>
      <trkpt lat="50.31155" lon="2.25116">
        <ele>67.91</ele>
        <time>2022-08-10T08:18:04Z</time>
      </trkpt>
      <trkpt lat="50.31158" lon="2.25119">
        <ele>67.43</ele>
        <time>2022-08-10T08:18:06Z</time>
      </trkpt>
      <trkpt lat="50.31172" lon="2.25134">
        <ele>65.03</ele>
        <time>2022-08-10T08:18:19Z</time>
      </trkpt>
      <trkpt lat="50.31182" lon="2.25143">
        <ele>64.55</ele>
        <time>2022-08-10T08:18:28Z</time>
      </trkpt>
      <trkpt lat="50.3119" lon="2.25147">
        <ele>64.55</ele>
        <time>2022-08-10T08:18:34Z</time>
      </trkpt>
      <trkpt lat="50.31205" lon="2.25152">
        <ele>63.1</ele>
        <time>2022-08-10T08:18:46Z</time>
      </trkpt>
      <trkpt lat="50.31218" lon="2.25162">
        <ele>63.1</ele>
        <time>2022-08-10T08:18:58Z</time>
      </trkpt>
      <trkpt lat="50.31228" lon="2.25172">
        <ele>62.14</ele>
        <time>2022-08-10T08:19:08Z</time>
      </trkpt>
      <trkpt lat="50.31238" lon="2.25181">
        <ele>61.66</ele>
        <time>2022-08-10T08:19:18Z</time>
      </trkpt>
      <trkpt lat="50.31248" lon="2.25193">
        <ele>61.66</ele>
        <time>2022-08-10T08:19:28Z</time>
      </trkpt>
      <trkpt lat="50.31259" lon="2.25213">
        <ele>60.7</ele>
        <time>2022-08-10T08:19:42Z</time>
      </trkpt>
      <trkpt lat="50.31259" lon="2.25215">
        <ele>60.7</ele>
        <time>2022-08-10T08:19:43Z</time>
      </trkpt>
      <trkpt lat="50.31268" lon="2.25238">
        <ele>58.78</ele>
        <time>2022-08-10T08:19:56Z</time>
      </trkpt>
      <trkpt lat="50.31274" lon="2.25258">
        <ele>60.22</ele>
        <time>2022-08-10T08:20:07Z</time>
      </trkpt>
      <trkpt lat="50.31275" lon="2.25263">
        <ele>61.66</ele>
        <time>2022-08-10T08:20:10Z</time>
      </trkpt>
      <trkpt lat="50.31283" lon="2.25287">
        <ele>63.1</ele>
        <time>2022-08-10T08:20:24Z</time>
      </trkpt>
      <trkpt lat="50.31286" lon="2.25302">
        <ele>64.07</ele>
        <time>2022-08-10T08:20:33Z</time>
      </trkpt>
      <trkpt lat="50.31287" lon="2.2532">
        <ele>66.47</ele>
        <time>2022-08-10T08:20:43Z</time>
      </trkpt>
      <trkpt lat="50.31285" lon="2.25338">
        <ele>66.47</ele>
        <time>2022-08-10T08:20:54Z</time>
      </trkpt>
      <trkpt lat="50.31282" lon="2.25349">
        <ele>64.55</ele>
        <time>2022-08-10T08:21:01Z</time>
      </trkpt>
      <trkpt lat="50.31278" lon="2.25367">
        <ele>65.03</ele>
        <time>2022-08-10T08:21:12Z</time>
      </trkpt>
      <trkpt lat="50.31271" lon="2.2539">
        <ele>67.91</ele>
        <time>2022-08-10T08:21:25Z</time>
      </trkpt>
      <trkpt lat="50.31262" lon="2.2542">
        <ele>71.76</ele>
        <time>2022-08-10T08:21:38Z</time>
      </trkpt>
      <trkpt lat="50.31257" lon="2.25443">
        <ele>73.2</ele>
        <time>2022-08-10T08:21:49Z</time>
      </trkpt>
      <trkpt lat="50.31249" lon="2.25462">
        <ele>73.68</ele>
        <time>2022-08-10T08:22:00Z</time>
      </trkpt>
      <trkpt lat="50.31247" lon="2.25467">
        <ele>73.68</ele>
        <time>2022-08-10T08:22:03Z</time>
      </trkpt>
      <trkpt lat="50.31237" lon="2.25492">
        <ele>75.12</ele>
        <time>2022-08-10T08:22:16Z</time>
      </trkpt>
      <trkpt lat="50.3123" lon="2.25511">
        <ele>77.04</ele>
        <time>2022-08-10T08:22:27Z</time>
      </trkpt>
      <trkpt lat="50.31227" lon="2.25532">
        <ele>77.52</ele>
        <time>2022-08-10T08:22:38Z</time>
      </trkpt>
      <trkpt lat="50.31222" lon="2.25549">
        <ele>77.04</ele>
        <time>2022-08-10T08:22:48Z</time>
      </trkpt>
      <trkpt lat="50.31218" lon="2.25568">
        <ele>78</ele>
        <time>2022-08-10T08:22:59Z</time>
      </trkpt>
      <trkpt lat="50.31213" lon="2.25589">
        <ele>77.04</ele>
        <time>2022-08-10T08:23:10Z</time>
      </trkpt>
      <trkpt lat="50.3121" lon="2.25606">
        <ele>76.08</ele>
        <time>2022-08-10T08:23:20Z</time>
      </trkpt>
      <trkpt lat="50.3121" lon="2.25626">
        <ele>75.12</ele>
        <time>2022-08-10T08:23:30Z</time>
      </trkpt>
      <trkpt lat="50.31213" lon="2.25646">
        <ele>75.6</ele>
        <time>2022-08-10T08:23:41Z</time>
      </trkpt>
      <trkpt lat="50.31214" lon="2.25658">
        <ele>77.04</ele>
        <time>2022-08-10T08:23:50Z</time>
      </trkpt>
      <trkpt lat="50.31217" lon="2.25676">
        <ele>77.04</ele>
        <time>2022-08-10T08:24:01Z</time>
      </trkpt>
      <trkpt lat="50.31219" lon="2.25698">
        <ele>76.08</ele>
        <time>2022-08-10T08:24:11Z</time>
      </trkpt>
      <trkpt lat="50.31224" lon="2.25715">
        <ele>74.16</ele>
        <time>2022-08-10T08:24:21Z</time>
      </trkpt>
      <trkpt lat="50.31226" lon="2.25736">
        <ele>71.76</ele>
        <time>2022-08-10T08:24:33Z</time>
      </trkpt>
      <trkpt lat="50.31232" lon="2.25764">
        <ele>70.31</ele>
        <time>2022-08-10T08:24:46Z</time>
      </trkpt>
      <trkpt lat="50.3124" lon="2.25789">
        <ele>71.27</ele>
        <time>2022-08-10T08:24:59Z</time>
      </trkpt>
      <trkpt lat="50.31246" lon="2.25808">
        <ele>71.27</ele>
        <time>2022-08-10T08:25:10Z</time>
      </trkpt>
      <trkpt lat="50.31246" lon="2.25809">
        <ele>71.27</ele>
        <time>2022-08-10T08:25:11Z</time>
      </trkpt>
      <trkpt lat="50.31254" lon="2.25829">
        <ele>74.16</ele>
        <time>2022-08-10T08:25:22Z</time>
      </trkpt>
      <trkpt lat="50.31256" lon="2.25847">
        <ele>77.04</ele>
        <time>2022-08-10T08:25:35Z</time>
      </trkpt>
      <trkpt lat="50.31258" lon="2.25857">
        <ele>81.85</ele>
        <time>2022-08-10T08:25:50Z</time>
      </trkpt>
      <trkpt lat="50.31263" lon="2.25865">
        <ele>86.66</ele>
        <time>2022-08-10T08:26:07Z</time>
      </trkpt>
      <trkpt lat="50.31263" lon="2.25882">
        <ele>84.73</ele>
        <time>2022-08-10T08:26:20Z</time>
      </trkpt>
      <trkpt lat="50.31265" lon="2.25898">
        <ele>83.29</ele>
        <time>2022-08-10T08:26:29Z</time>
      </trkpt>
      <trkpt lat="50.31265" lon="2.25903">
        <ele>82.81</ele>
        <time>2022-08-10T08:26:31Z</time>
      </trkpt>
      <trkpt lat="50.31263" lon="2.25911">
        <ele>84.73</ele>
        <time>2022-08-10T08:26:35Z</time>
      </trkpt>
      <trkpt lat="50.31249" lon="2.25908">
        <ele>86.66</ele>
        <time>2022-08-10T08:26:47Z</time>
      </trkpt>
      <trkpt lat="50.31246" lon="2.25906">
        <ele>87.14</ele>
        <time>2022-08-10T08:26:49Z</time>
      </trkpt>
      <trkpt lat="50.31229" lon="2.25893">
        <ele>86.66</ele>
        <time>2022-08-10T08:27:04Z</time>
      </trkpt>
      <trkpt lat="50.31213" lon="2.2588">
        <ele>88.58</ele>
        <time>2022-08-10T08:27:17Z</time>
      </trkpt>
      <trkpt lat="50.31196" lon="2.25867">
        <ele>91.94</ele>
        <time>2022-08-10T08:27:31Z</time>
      </trkpt>
      <trkpt lat="50.31174" lon="2.25854">
        <ele>98.19</ele>
        <time>2022-08-10T08:27:46Z</time>
      </trkpt>
      <trkpt lat="50.31159" lon="2.25843">
        <ele>100.11</ele>
        <time>2022-08-10T08:27:59Z</time>
      </trkpt>
      <trkpt lat="50.3115" lon="2.25836">
        <ele>99.63</ele>
        <time>2022-08-10T08:28:07Z</time>
      </trkpt>
      <trkpt lat="50.31133" lon="2.25824">
        <ele>103.96</ele>
        <time>2022-08-10T08:28:21Z</time>
      </trkpt>
      <trkpt lat="50.3112" lon="2.25814">
        <ele>104.92</ele>
        <time>2022-08-10T08:28:32Z</time>
      </trkpt>
      <trkpt lat="50.31118" lon="2.25812">
        <ele>104.92</ele>
        <time>2022-08-10T08:28:34Z</time>
      </trkpt>
      <trkpt lat="50.31114" lon="2.25806">
        <ele>104.44</ele>
        <time>2022-08-10T08:28:38Z</time>
      </trkpt>
      <trkpt lat="50.31096" lon="2.25793">
        <ele>105.4</ele>
        <time>2022-08-10T08:28:54Z</time>
      </trkpt>
      <trkpt lat="50.3108" lon="2.25781">
        <ele>107.81</ele>
        <time>2022-08-10T08:29:07Z</time>
      </trkpt>
      <trkpt lat="50.31066" lon="2.25771">
        <ele>109.25</ele>
        <time>2022-08-10T08:29:20Z</time>
      </trkpt>
      <trkpt lat="50.3105" lon="2.25767">
        <ele>110.69</ele>
        <time>2022-08-10T08:29:33Z</time>
      </trkpt>
      <trkpt lat="50.31031" lon="2.25761">
        <ele>112.61</ele>
        <time>2022-08-10T08:29:48Z</time>
      </trkpt>
      <trkpt lat="50.31012" lon="2.25761">
        <ele>114.05</ele>
        <time>2022-08-10T08:30:02Z</time>
      </trkpt>
      <trkpt lat="50.30994" lon="2.25761">
        <ele>114.05</ele>
        <time>2022-08-10T08:30:16Z</time>
      </trkpt>
      <trkpt lat="50.30974" lon="2.25758">
        <ele>115.01</ele>
        <time>2022-08-10T08:30:32Z</time>
      </trkpt>
      <trkpt lat="50.30957" lon="2.25755">
        <ele>115.5</ele>
        <time>2022-08-10T08:30:46Z</time>
      </trkpt>
      <trkpt lat="50.30939" lon="2.25752">
        <ele>115.5</ele>
        <time>2022-08-10T08:31:00Z</time>
      </trkpt>
      <trkpt lat="50.30917" lon="2.25746">
        <ele>115.98</ele>
        <time>2022-08-10T08:31:17Z</time>
      </trkpt>
      <trkpt lat="50.30894" lon="2.25741">
        <ele>117.9</ele>
        <time>2022-08-10T08:31:34Z</time>
      </trkpt>
      <trkpt lat="50.30873" lon="2.25735">
        <ele>119.34</ele>
        <time>2022-08-10T08:31:51Z</time>
      </trkpt>
      <trkpt lat="50.30852" lon="2.25726">
        <ele>120.78</ele>
        <time>2022-08-10T08:32:08Z</time>
      </trkpt>
      <trkpt lat="50.30828" lon="2.25718">
        <ele>122.22</ele>
        <time>2022-08-10T08:32:26Z</time>
      </trkpt>
      <trkpt lat="50.30809" lon="2.25714">
        <ele>123.67</ele>
        <time>2022-08-10T08:32:41Z</time>
      </trkpt>
      <trkpt lat="50.30791" lon="2.2572">
        <ele>124.63</ele>
        <time>2022-08-10T08:32:57Z</time>
      </trkpt>
      <trkpt lat="50.30784" lon="2.25748">
        <ele>126.07</ele>
        <time>2022-08-10T08:33:12Z</time>
      </trkpt>
      <trkpt lat="50.30775" lon="2.25779">
        <ele>126.55</ele>
        <time>2022-08-10T08:33:28Z</time>
      </trkpt>
      <trkpt lat="50.30764" lon="2.25813">
        <ele>128.47</ele>
        <time>2022-08-10T08:33:46Z</time>
      </trkpt>
      <trkpt lat="50.30756" lon="2.25839">
        <ele>128.95</ele>
        <time>2022-08-10T08:34:00Z</time>
      </trkpt>
      <trkpt lat="50.30746" lon="2.25871">
        <ele>129.92</ele>
        <time>2022-08-10T08:34:18Z</time>
      </trkpt>
      <trkpt lat="50.30736" lon="2.25903">
        <ele>131.36</ele>
        <time>2022-08-10T08:34:35Z</time>
      </trkpt>
      <trkpt lat="50.30724" lon="2.25938">
        <ele>131.36</ele>
        <time>2022-08-10T08:34:54Z</time>
      </trkpt>
      <trkpt lat="50.30715" lon="2.25969">
        <ele>131.36</ele>
        <time>2022-08-10T08:35:10Z</time>
      </trkpt>
      <trkpt lat="50.30704" lon="2.26004">
        <ele>130.88</ele>
        <time>2022-08-10T08:35:28Z</time>
      </trkpt>
      <trkpt lat="50.30697" lon="2.2603">
        <ele>129.92</ele>
        <time>2022-08-10T08:35:41Z</time>
      </trkpt>
      <trkpt lat="50.30686" lon="2.26065">
        <ele>128.95</ele>
        <time>2022-08-10T08:35:59Z</time>
      </trkpt>
      <trkpt lat="50.30678" lon="2.26093">
        <ele>128.47</ele>
        <time>2022-08-10T08:36:13Z</time>
      </trkpt>
      <trkpt lat="50.30668" lon="2.26125">
        <ele>127.51</ele>
        <time>2022-08-10T08:36:29Z</time>
      </trkpt>
      <trkpt lat="50.3066" lon="2.26155">
        <ele>127.03</ele>
        <time>2022-08-10T08:36:44Z</time>
      </trkpt>
      <trkpt lat="50.30649" lon="2.26186">
        <ele>126.55</ele>
        <time>2022-08-10T08:37:00Z</time>
      </trkpt>
      <trkpt lat="50.30636" lon="2.26226">
        <ele>125.11</ele>
        <time>2022-08-10T08:37:21Z</time>
      </trkpt>
      <trkpt lat="50.30625" lon="2.26263">
        <ele>124.15</ele>
        <time>2022-08-10T08:37:39Z</time>
      </trkpt>
      <trkpt lat="50.30614" lon="2.26298">
        <ele>122.71</ele>
        <time>2022-08-10T08:37:56Z</time>
      </trkpt>
      <trkpt lat="50.30603" lon="2.26333">
        <ele>123.67</ele>
        <time>2022-08-10T08:38:13Z</time>
      </trkpt>
      <trkpt lat="50.30593" lon="2.26369">
        <ele>123.67</ele>
        <time>2022-08-10T08:38:31Z</time>
      </trkpt>
      <trkpt lat="50.30589" lon="2.26408">
        <ele>126.07</ele>
        <time>2022-08-10T08:38:49Z</time>
      </trkpt>
      <trkpt lat="50.30592" lon="2.26443">
        <ele>127.03</ele>
        <time>2022-08-10T08:39:04Z</time>
      </trkpt>
      <trkpt lat="50.30594" lon="2.26484">
        <ele>127.03</ele>
        <time>2022-08-10T08:39:22Z</time>
      </trkpt>
      <trkpt lat="50.30597" lon="2.26521">
        <ele>127.03</ele>
        <time>2022-08-10T08:39:39Z</time>
      </trkpt>
      <trkpt lat="50.30599" lon="2.26565">
        <ele>127.03</ele>
        <time>2022-08-10T08:39:58Z</time>
      </trkpt>
      <trkpt lat="50.30602" lon="2.26611">
        <ele>127.99</ele>
        <time>2022-08-10T08:40:18Z</time>
      </trkpt>
      <trkpt lat="50.30604" lon="2.2665">
        <ele>127.99</ele>
        <time>2022-08-10T08:40:36Z</time>
      </trkpt>
      <trkpt lat="50.30597" lon="2.26683">
        <ele>129.43</ele>
        <time>2022-08-10T08:40:53Z</time>
      </trkpt>
      <trkpt lat="50.30582" lon="2.26709">
        <ele>130.88</ele>
        <time>2022-08-10T08:41:09Z</time>
      </trkpt>
      <trkpt lat="50.30568" lon="2.2674">
        <ele>132.32</ele>
        <time>2022-08-10T08:41:27Z</time>
      </trkpt>
      <trkpt lat="50.30551" lon="2.26777">
        <ele>132.32</ele>
        <time>2022-08-10T08:41:47Z</time>
      </trkpt>
      <trkpt lat="50.30536" lon="2.26809">
        <ele>130.4</ele>
        <time>2022-08-10T08:42:05Z</time>
      </trkpt>
      <trkpt lat="50.30519" lon="2.26843">
        <ele>129.92</ele>
        <time>2022-08-10T08:42:25Z</time>
      </trkpt>
      <trkpt lat="50.30506" lon="2.26871">
        <ele>129.92</ele>
        <time>2022-08-10T08:42:41Z</time>
      </trkpt>
      <trkpt lat="50.30493" lon="2.26904">
        <ele>128.95</ele>
        <time>2022-08-10T08:42:58Z</time>
      </trkpt>
      <trkpt lat="50.30479" lon="2.26934">
        <ele>127.99</ele>
        <time>2022-08-10T08:43:15Z</time>
      </trkpt>
      <trkpt lat="50.30465" lon="2.26963">
        <ele>127.99</ele>
        <time>2022-08-10T08:43:31Z</time>
      </trkpt>
      <trkpt lat="50.30456" lon="2.26983">
        <ele>127.51</ele>
        <time>2022-08-10T08:43:44Z</time>
      </trkpt>
      <trkpt lat="50.30448" lon="2.27005">
        <ele>126.55</ele>
        <time>2022-08-10T08:43:56Z</time>
      </trkpt>
      <trkpt lat="50.30434" lon="2.27031">
        <ele>125.59</ele>
        <time>2022-08-10T08:44:11Z</time>
      </trkpt>
      <trkpt lat="50.30418" lon="2.2705">
        <ele>124.63</ele>
        <time>2022-08-10T08:44:26Z</time>
      </trkpt>
      <trkpt lat="50.30399" lon="2.2707">
        <ele>124.15</ele>
        <time>2022-08-10T08:44:42Z</time>
      </trkpt>
      <trkpt lat="50.30378" lon="2.27084">
        <ele>124.15</ele>
        <time>2022-08-10T08:44:58Z</time>
      </trkpt>
      <trkpt lat="50.30366" lon="2.2709">
        <ele>125.11</ele>
        <time>2022-08-10T08:45:12Z</time>
      </trkpt>
      <trkpt lat="50.30366" lon="2.27092">
        <ele>125.11</ele>
        <time>2022-08-10T08:45:35Z</time>
      </trkpt>
      <trkpt lat="50.30367" lon="2.27094">
        <ele>125.11</ele>
        <time>2022-08-10T08:45:54Z</time>
      </trkpt>
      <trkpt lat="50.30362" lon="2.27098">
        <ele>125.59</ele>
        <time>2022-08-10T08:46:02Z</time>
      </trkpt>
      <trkpt lat="50.3036" lon="2.27099">
        <ele>125.59</ele>
        <time>2022-08-10T08:46:04Z</time>
      </trkpt>
      <trkpt lat="50.3035" lon="2.27101">
        <ele>126.55</ele>
        <time>2022-08-10T08:46:12Z</time>
      </trkpt>
      <trkpt lat="50.30345" lon="2.27094">
        <ele>127.03</ele>
        <time>2022-08-10T08:46:17Z</time>
      </trkpt>
      <trkpt lat="50.30336" lon="2.27067">
        <ele>129.43</ele>
        <time>2022-08-10T08:46:31Z</time>
      </trkpt>
      <trkpt lat="50.30328" lon="2.27042">
        <ele>130.88</ele>
        <time>2022-08-10T08:46:45Z</time>
      </trkpt>
      <trkpt lat="50.30318" lon="2.27004">
        <ele>133.28</ele>
        <time>2022-08-10T08:47:04Z</time>
      </trkpt>
      <trkpt lat="50.3031" lon="2.26972">
        <ele>135.2</ele>
        <time>2022-08-10T08:47:20Z</time>
      </trkpt>
      <trkpt lat="50.30301" lon="2.26938">
        <ele>135.68</ele>
        <time>2022-08-10T08:47:37Z</time>
      </trkpt>
      <trkpt lat="50.30292" lon="2.26903">
        <ele>135.68</ele>
        <time>2022-08-10T08:47:55Z</time>
      </trkpt>
      <trkpt lat="50.30285" lon="2.26874">
        <ele>135.68</ele>
        <time>2022-08-10T08:48:10Z</time>
      </trkpt>
      <trkpt lat="50.30276" lon="2.26842">
        <ele>133.76</ele>
        <time>2022-08-10T08:48:27Z</time>
      </trkpt>
      <trkpt lat="50.30269" lon="2.26811">
        <ele>135.2</ele>
        <time>2022-08-10T08:48:43Z</time>
      </trkpt>
      <trkpt lat="50.30261" lon="2.2678">
        <ele>134.72</ele>
        <time>2022-08-10T08:48:59Z</time>
      </trkpt>
      <trkpt lat="50.30253" lon="2.26753">
        <ele>134.72</ele>
        <time>2022-08-10T08:49:14Z</time>
      </trkpt>
      <trkpt lat="50.30245" lon="2.26721">
        <ele>135.2</ele>
        <time>2022-08-10T08:49:31Z</time>
      </trkpt>
      <trkpt lat="50.30242" lon="2.26701">
        <ele>136.64</ele>
        <time>2022-08-10T08:49:43Z</time>
      </trkpt>
      <trkpt lat="50.30236" lon="2.26674">
        <ele>137.61</ele>
        <time>2022-08-10T08:49:57Z</time>
      </trkpt>
      <trkpt lat="50.30227" lon="2.26647">
        <ele>138.09</ele>
        <time>2022-08-10T08:50:12Z</time>
      </trkpt>
      <trkpt lat="50.30218" lon="2.26613">
        <ele>137.13</ele>
        <time>2022-08-10T08:50:30Z</time>
      </trkpt>
      <trkpt lat="50.3021" lon="2.26584">
        <ele>137.61</ele>
        <time>2022-08-10T08:50:46Z</time>
      </trkpt>
      <trkpt lat="50.30202" lon="2.26549">
        <ele>139.05</ele>
        <time>2022-08-10T08:51:04Z</time>
      </trkpt>
      <trkpt lat="50.30196" lon="2.26516">
        <ele>139.53</ele>
        <time>2022-08-10T08:51:21Z</time>
      </trkpt>
      <trkpt lat="50.30195" lon="2.26484">
        <ele>141.45</ele>
        <time>2022-08-10T08:51:37Z</time>
      </trkpt>
      <trkpt lat="50.30197" lon="2.26456">
        <ele>142.89</ele>
        <time>2022-08-10T08:51:51Z</time>
      </trkpt>
      <trkpt lat="50.30195" lon="2.26435">
        <ele>143.37</ele>
        <time>2022-08-10T08:52:02Z</time>
      </trkpt>
      <trkpt lat="50.3019" lon="2.26411">
        <ele>143.37</ele>
        <time>2022-08-10T08:52:16Z</time>
      </trkpt>
      <trkpt lat="50.30174" lon="2.26392">
        <ele>143.85</ele>
        <time>2022-08-10T08:52:30Z</time>
      </trkpt>
      <trkpt lat="50.30157" lon="2.2637">
        <ele>145.3</ele>
        <time>2022-08-10T08:52:46Z</time>
      </trkpt>
      <trkpt lat="50.30145" lon="2.26356">
        <ele>144.82</ele>
        <time>2022-08-10T08:52:57Z</time>
      </trkpt>
      <trkpt lat="50.30131" lon="2.26336">
        <ele>142.89</ele>
        <time>2022-08-10T08:53:11Z</time>
      </trkpt>
      <trkpt lat="50.30112" lon="2.26311">
        <ele>140.97</ele>
        <time>2022-08-10T08:53:29Z</time>
      </trkpt>
      <trkpt lat="50.30094" lon="2.26286">
        <ele>140.01</ele>
        <time>2022-08-10T08:53:46Z</time>
      </trkpt>
      <trkpt lat="50.30074" lon="2.2626">
        <ele>138.09</ele>
        <time>2022-08-10T08:54:04Z</time>
      </trkpt>
      <trkpt lat="50.30057" lon="2.26238">
        <ele>137.13</ele>
        <time>2022-08-10T08:54:20Z</time>
      </trkpt>
      <trkpt lat="50.30039" lon="2.26216">
        <ele>136.64</ele>
        <time>2022-08-10T08:54:36Z</time>
      </trkpt>
      <trkpt lat="50.3002" lon="2.26191">
        <ele>136.16</ele>
        <time>2022-08-10T08:54:55Z</time>
      </trkpt>
      <trkpt lat="50.30004" lon="2.26172">
        <ele>135.2</ele>
        <time>2022-08-10T08:55:10Z</time>
      </trkpt>
      <trkpt lat="50.29991" lon="2.26155">
        <ele>134.72</ele>
        <time>2022-08-10T08:55:23Z</time>
      </trkpt>
      <trkpt lat="50.29975" lon="2.26133">
        <ele>133.76</ele>
        <time>2022-08-10T08:55:39Z</time>
      </trkpt>
      <trkpt lat="50.2996" lon="2.26114">
        <ele>133.28</ele>
        <time>2022-08-10T08:55:53Z</time>
      </trkpt>
      <trkpt lat="50.29945" lon="2.26093">
        <ele>132.8</ele>
        <time>2022-08-10T08:56:08Z</time>
      </trkpt>
      <trkpt lat="50.29931" lon="2.26074">
        <ele>131.36</ele>
        <time>2022-08-10T08:56:22Z</time>
      </trkpt>
      <trkpt lat="50.29911" lon="2.26047">
        <ele>130.88</ele>
        <time>2022-08-10T08:56:41Z</time>
      </trkpt>
      <trkpt lat="50.2989" lon="2.26018">
        <ele>130.4</ele>
        <time>2022-08-10T08:57:01Z</time>
      </trkpt>
      <trkpt lat="50.29872" lon="2.25994">
        <ele>131.84</ele>
        <time>2022-08-10T08:57:17Z</time>
      </trkpt>
      <trkpt lat="50.29852" lon="2.25968">
        <ele>131.84</ele>
        <time>2022-08-10T08:57:35Z</time>
      </trkpt>
      <trkpt lat="50.29832" lon="2.25942">
        <ele>131.84</ele>
        <time>2022-08-10T08:57:54Z</time>
      </trkpt>
      <trkpt lat="50.29817" lon="2.25922">
        <ele>131.36</ele>
        <time>2022-08-10T08:58:09Z</time>
      </trkpt>
      <trkpt lat="50.29799" lon="2.25895">
        <ele>131.84</ele>
        <time>2022-08-10T08:58:27Z</time>
      </trkpt>
      <trkpt lat="50.29782" lon="2.2587">
        <ele>130.88</ele>
        <time>2022-08-10T08:58:44Z</time>
      </trkpt>
      <trkpt lat="50.29764" lon="2.25849">
        <ele>129.92</ele>
        <time>2022-08-10T08:59:00Z</time>
      </trkpt>
      <trkpt lat="50.29741" lon="2.25832">
        <ele>127.99</ele>
        <time>2022-08-10T08:59:18Z</time>
      </trkpt>
      <trkpt lat="50.29716" lon="2.25818">
        <ele>127.03</ele>
        <time>2022-08-10T08:59:37Z</time>
      </trkpt>
      <trkpt lat="50.29697" lon="2.25808">
        <ele>127.03</ele>
        <time>2022-08-10T08:59:52Z</time>
      </trkpt>
      <trkpt lat="50.29677" lon="2.25796">
        <ele>126.55</ele>
        <time>2022-08-10T09:00:07Z</time>
      </trkpt>
      <trkpt lat="50.29657" lon="2.25784">
        <ele>125.59</ele>
        <time>2022-08-10T09:00:23Z</time>
      </trkpt>
      <trkpt lat="50.29639" lon="2.25774">
        <ele>126.07</ele>
        <time>2022-08-10T09:00:37Z</time>
      </trkpt>
      <trkpt lat="50.29622" lon="2.25764">
        <ele>126.07</ele>
        <time>2022-08-10T09:00:50Z</time>
      </trkpt>
      <trkpt lat="50.29602" lon="2.25752">
        <ele>125.11</ele>
        <time>2022-08-10T09:01:06Z</time>
      </trkpt>
      <trkpt lat="50.2958" lon="2.25737">
        <ele>125.11</ele>
        <time>2022-08-10T09:01:24Z</time>
      </trkpt>
      <trkpt lat="50.29561" lon="2.25724">
        <ele>125.59</ele>
        <time>2022-08-10T09:01:39Z</time>
      </trkpt>
      <trkpt lat="50.2954" lon="2.25706">
        <ele>124.63</ele>
        <time>2022-08-10T09:01:56Z</time>
      </trkpt>
      <trkpt lat="50.29513" lon="2.25688">
        <ele>123.67</ele>
        <time>2022-08-10T09:02:17Z</time>
      </trkpt>
      <trkpt lat="50.29489" lon="2.25671">
        <ele>122.71</ele>
        <time>2022-08-10T09:02:36Z</time>
      </trkpt>
      <trkpt lat="50.29469" lon="2.25656">
        <ele>121.74</ele>
        <time>2022-08-10T09:02:52Z</time>
      </trkpt>
      <trkpt lat="50.29447" lon="2.25639">
        <ele>121.26</ele>
        <time>2022-08-10T09:03:10Z</time>
      </trkpt>
      <trkpt lat="50.29419" lon="2.25619">
        <ele>120.78</ele>
        <time>2022-08-10T09:03:31Z</time>
      </trkpt>
      <trkpt lat="50.29399" lon="2.25604">
        <ele>121.26</ele>
        <time>2022-08-10T09:03:47Z</time>
      </trkpt>
      <trkpt lat="50.2938" lon="2.25589">
        <ele>121.74</ele>
        <time>2022-08-10T09:04:02Z</time>
      </trkpt>
      <trkpt lat="50.29364" lon="2.25579">
        <ele>121.26</ele>
        <time>2022-08-10T09:04:15Z</time>
      </trkpt>
      <trkpt lat="50.29343" lon="2.25564">
        <ele>120.78</ele>
        <time>2022-08-10T09:04:31Z</time>
      </trkpt>
      <trkpt lat="50.29322" lon="2.2555">
        <ele>118.86</ele>
        <time>2022-08-10T09:04:48Z</time>
      </trkpt>
      <trkpt lat="50.29304" lon="2.25536">
        <ele>117.9</ele>
        <time>2022-08-10T09:05:03Z</time>
      </trkpt>
      <trkpt lat="50.29283" lon="2.25523">
        <ele>116.46</ele>
        <time>2022-08-10T09:05:19Z</time>
      </trkpt>
      <trkpt lat="50.29265" lon="2.25514">
        <ele>115.01</ele>
        <time>2022-08-10T09:05:34Z</time>
      </trkpt>
      <trkpt lat="50.29252" lon="2.25514">
        <ele>109.73</ele>
        <time>2022-08-10T09:05:47Z</time>
      </trkpt>
      <trkpt lat="50.29237" lon="2.25512">
        <ele>103.96</ele>
        <time>2022-08-10T09:06:00Z</time>
      </trkpt>
      <trkpt lat="50.29227" lon="2.2551">
        <ele>100.6</ele>
        <time>2022-08-10T09:06:08Z</time>
      </trkpt>
      <trkpt lat="50.29213" lon="2.25503">
        <ele>98.67</ele>
        <time>2022-08-10T09:06:19Z</time>
      </trkpt>
      <trkpt lat="50.29197" lon="2.25496">
        <ele>98.19</ele>
        <time>2022-08-10T09:06:31Z</time>
      </trkpt>
      <trkpt lat="50.2918" lon="2.25487">
        <ele>99.63</ele>
        <time>2022-08-10T09:06:44Z</time>
      </trkpt>
      <trkpt lat="50.29166" lon="2.25479">
        <ele>100.11</ele>
        <time>2022-08-10T09:06:55Z</time>
      </trkpt>
      <trkpt lat="50.29145" lon="2.25472">
        <ele>101.56</ele>
        <time>2022-08-10T09:07:07Z</time>
      </trkpt>
      <trkpt lat="50.29118" lon="2.25476">
        <ele>102.52</ele>
        <time>2022-08-10T09:07:24Z</time>
      </trkpt>
      <trkpt lat="50.29095" lon="2.25488">
        <ele>100.6</ele>
        <time>2022-08-10T09:07:40Z</time>
      </trkpt>
      <trkpt lat="50.29073" lon="2.25502">
        <ele>100.11</ele>
        <time>2022-08-10T09:07:56Z</time>
      </trkpt>
      <trkpt lat="50.29052" lon="2.25514">
        <ele>98.19</ele>
        <time>2022-08-10T09:08:12Z</time>
      </trkpt>
      <trkpt lat="50.2903" lon="2.25519">
        <ele>96.27</ele>
        <time>2022-08-10T09:08:28Z</time>
      </trkpt>
      <trkpt lat="50.29005" lon="2.25505">
        <ele>94.83</ele>
        <time>2022-08-10T09:08:46Z</time>
      </trkpt>
      <trkpt lat="50.28986" lon="2.25492">
        <ele>92.9</ele>
        <time>2022-08-10T09:09:01Z</time>
      </trkpt>
      <trkpt lat="50.28968" lon="2.25499">
        <ele>91.46</ele>
        <time>2022-08-10T09:09:15Z</time>
      </trkpt>
      <trkpt lat="50.28951" lon="2.25517">
        <ele>88.1</ele>
        <time>2022-08-10T09:09:30Z</time>
      </trkpt>
      <trkpt lat="50.28932" lon="2.2554">
        <ele>85.69</ele>
        <time>2022-08-10T09:09:47Z</time>
      </trkpt>
      <trkpt lat="50.28911" lon="2.25555">
        <ele>85.69</ele>
        <time>2022-08-10T09:10:03Z</time>
      </trkpt>
      <trkpt lat="50.28889" lon="2.25566">
        <ele>83.77</ele>
        <time>2022-08-10T09:10:20Z</time>
      </trkpt>
      <trkpt lat="50.28862" lon="2.25574">
        <ele>81.37</ele>
        <time>2022-08-10T09:10:40Z</time>
      </trkpt>
      <trkpt lat="50.28838" lon="2.25575">
        <ele>79.45</ele>
        <time>2022-08-10T09:10:57Z</time>
      </trkpt>
      <trkpt lat="50.28818" lon="2.25566">
        <ele>76.56</ele>
        <time>2022-08-10T09:11:12Z</time>
      </trkpt>
      <trkpt lat="50.28804" lon="2.25558">
        <ele>74.64</ele>
        <time>2022-08-10T09:11:23Z</time>
      </trkpt>
      <trkpt lat="50.28797" lon="2.25556">
        <ele>73.2</ele>
        <time>2022-08-10T09:11:31Z</time>
      </trkpt>
      <trkpt lat="50.28774" lon="2.25555">
        <ele>70.79</ele>
        <time>2022-08-10T09:11:47Z</time>
      </trkpt>
      <trkpt lat="50.28747" lon="2.25569">
        <ele>66.95</ele>
        <time>2022-08-10T09:12:05Z</time>
      </trkpt>
      <trkpt lat="50.28731" lon="2.25578">
        <ele>62.62</ele>
        <time>2022-08-10T09:12:18Z</time>
      </trkpt>
      <trkpt lat="50.28713" lon="2.25592">
        <ele>60.7</ele>
        <time>2022-08-10T09:12:32Z</time>
      </trkpt>
      <trkpt lat="50.28698" lon="2.25602">
        <ele>59.26</ele>
        <time>2022-08-10T09:12:44Z</time>
      </trkpt>
      <trkpt lat="50.28695" lon="2.25606">
        <ele>59.74</ele>
        <time>2022-08-10T09:12:55Z</time>
      </trkpt>
      <trkpt lat="50.28695" lon="2.25607">
        <ele>60.22</ele>
        <time>2022-08-10T09:13:04Z</time>
      </trkpt>
      <trkpt lat="50.28695" lon="2.25607">
        <ele>60.22</ele>
        <time>2022-08-10T09:13:18Z</time>
      </trkpt>
      <trkpt lat="50.28695" lon="2.25607">
        <ele>59.74</ele>
        <time>2022-08-10T09:13:36Z</time>
      </trkpt>
      <trkpt lat="50.28695" lon="2.25607">
        <ele>59.74</ele>
        <time>2022-08-10T09:13:48Z</time>
      </trkpt>
      <trkpt lat="50.28695" lon="2.25608">
        <ele>59.74</ele>
        <time>2022-08-10T09:14:04Z</time>
      </trkpt>
      <trkpt lat="50.28695" lon="2.25608">
        <ele>59.74</ele>
        <time>2022-08-10T09:14:18Z</time>
      </trkpt>
      <trkpt lat="50.28693" lon="2.25608">
        <ele>62.14</ele>
        <time>2022-08-10T09:14:38Z</time>
      </trkpt>
      <trkpt lat="50.28693" lon="2.25609">
        <ele>62.62</ele>
        <time>2022-08-10T09:14:50Z</time>
      </trkpt>
      <trkpt lat="50.28693" lon="2.25609">
        <ele>62.62</ele>
        <time>2022-08-10T09:15:05Z</time>
      </trkpt>
      <trkpt lat="50.28694" lon="2.25609">
        <ele>62.62</ele>
        <time>2022-08-10T09:15:29Z</time>
      </trkpt>
      <trkpt lat="50.28693" lon="2.25609">
        <ele>62.62</ele>
        <time>2022-08-10T09:15:47Z</time>
      </trkpt>
      <trkpt lat="50.28692" lon="2.25601">
        <ele>62.14</ele>
        <time>2022-08-10T09:15:59Z</time>
      </trkpt>
      <trkpt lat="50.28693" lon="2.25584">
        <ele>60.7</ele>
        <time>2022-08-10T09:16:11Z</time>
      </trkpt>
      <trkpt lat="50.28695" lon="2.25567">
        <ele>61.18</ele>
        <time>2022-08-10T09:16:23Z</time>
      </trkpt>
      <trkpt lat="50.287" lon="2.25548">
        <ele>62.14</ele>
        <time>2022-08-10T09:16:36Z</time>
      </trkpt>
      <trkpt lat="50.28702" lon="2.2553">
        <ele>61.66</ele>
        <time>2022-08-10T09:16:46Z</time>
      </trkpt>
      <trkpt lat="50.28705" lon="2.25509">
        <ele>61.18</ele>
        <time>2022-08-10T09:16:58Z</time>
      </trkpt>
      <trkpt lat="50.28711" lon="2.25491">
        <ele>61.66</ele>
        <time>2022-08-10T09:17:11Z</time>
      </trkpt>
      <trkpt lat="50.28716" lon="2.25475">
        <ele>62.62</ele>
        <time>2022-08-10T09:17:22Z</time>
      </trkpt>
      <trkpt lat="50.28716" lon="2.25471">
        <ele>62.62</ele>
        <time>2022-08-10T09:17:25Z</time>
      </trkpt>
      <trkpt lat="50.2872" lon="2.25459">
        <ele>63.1</ele>
        <time>2022-08-10T09:17:36Z</time>
      </trkpt>
      <trkpt lat="50.28728" lon="2.25434">
        <ele>65.99</ele>
        <time>2022-08-10T09:17:49Z</time>
      </trkpt>
      <trkpt lat="50.28731" lon="2.25424">
        <ele>65.51</ele>
        <time>2022-08-10T09:17:59Z</time>
      </trkpt>
      <trkpt lat="50.28739" lon="2.25406">
        <ele>65.03</ele>
        <time>2022-08-10T09:18:13Z</time>
      </trkpt>
      <trkpt lat="50.28748" lon="2.25383">
        <ele>63.1</ele>
        <time>2022-08-10T09:18:27Z</time>
      </trkpt>
      <trkpt lat="50.28761" lon="2.2536">
        <ele>59.26</ele>
        <time>2022-08-10T09:18:42Z</time>
      </trkpt>
      <trkpt lat="50.28772" lon="2.25342">
        <ele>59.26</ele>
        <time>2022-08-10T09:18:54Z</time>
      </trkpt>
      <trkpt lat="50.28786" lon="2.25326">
        <ele>58.78</ele>
        <time>2022-08-10T09:19:09Z</time>
      </trkpt>
      <trkpt lat="50.2879" lon="2.25318">
        <ele>61.18</ele>
        <time>2022-08-10T09:19:22Z</time>
      </trkpt>
      <trkpt lat="50.28792" lon="2.25315">
        <ele>63.1</ele>
        <time>2022-08-10T09:19:31Z</time>
      </trkpt>
      <trkpt lat="50.28782" lon="2.25314">
        <ele>61.66</ele>
        <time>2022-08-10T09:19:44Z</time>
      </trkpt>
      <trkpt lat="50.2877" lon="2.25313">
        <ele>58.78</ele>
        <time>2022-08-10T09:19:57Z</time>
      </trkpt>
      <trkpt lat="50.28757" lon="2.25312">
        <ele>56.86</ele>
        <time>2022-08-10T09:20:09Z</time>
      </trkpt>
      <trkpt lat="50.28739" lon="2.25313">
        <ele>60.22</ele>
        <time>2022-08-10T09:20:20Z</time>
      </trkpt>
      <trkpt lat="50.28726" lon="2.25309">
        <ele>60.22</ele>
        <time>2022-08-10T09:20:32Z</time>
      </trkpt>
      <trkpt lat="50.28724" lon="2.25307">
        <ele>59.74</ele>
        <time>2022-08-10T09:20:35Z</time>
      </trkpt>
      <trkpt lat="50.28714" lon="2.25297">
        <ele>57.34</ele>
        <time>2022-08-10T09:20:48Z</time>
      </trkpt>
      <trkpt lat="50.28703" lon="2.25288">
        <ele>56.37</ele>
        <time>2022-08-10T09:21:01Z</time>
      </trkpt>
      <trkpt lat="50.28687" lon="2.25274">
        <ele>54.45</ele>
        <time>2022-08-10T09:21:14Z</time>
      </trkpt>
      <trkpt lat="50.28683" lon="2.25274">
        <ele>53.97</ele>
        <time>2022-08-10T09:21:20Z</time>
      </trkpt>
      <trkpt lat="50.28667" lon="2.25294">
        <ele>53.97</ele>
        <time>2022-08-10T09:21:35Z</time>
      </trkpt>
      <trkpt lat="50.28653" lon="2.25323">
        <ele>56.37</ele>
        <time>2022-08-10T09:21:50Z</time>
      </trkpt>
      <trkpt lat="50.28644" lon="2.25348">
        <ele>57.34</ele>
        <time>2022-08-10T09:22:03Z</time>
      </trkpt>
      <trkpt lat="50.28634" lon="2.25373">
        <ele>56.86</ele>
        <time>2022-08-10T09:22:17Z</time>
      </trkpt>
      <trkpt lat="50.28625" lon="2.25403">
        <ele>59.74</ele>
        <time>2022-08-10T09:22:31Z</time>
      </trkpt>
      <trkpt lat="50.28618" lon="2.25426">
        <ele>59.74</ele>
        <time>2022-08-10T09:22:44Z</time>
      </trkpt>
      <trkpt lat="50.2861" lon="2.25451">
        <ele>56.86</ele>
        <time>2022-08-10T09:22:58Z</time>
      </trkpt>
      <trkpt lat="50.28609" lon="2.25454">
        <ele>56.37</ele>
        <time>2022-08-10T09:23:00Z</time>
      </trkpt>
      <trkpt lat="50.28604" lon="2.25468">
        <ele>54.93</ele>
        <time>2022-08-10T09:23:09Z</time>
      </trkpt>
      <trkpt lat="50.28601" lon="2.25486">
        <ele>51.57</ele>
        <time>2022-08-10T09:23:20Z</time>
      </trkpt>
      <trkpt lat="50.28589" lon="2.25512">
        <ele>50.13</ele>
        <time>2022-08-10T09:23:34Z</time>
      </trkpt>
      <trkpt lat="50.28581" lon="2.25541">
        <ele>51.09</ele>
        <time>2022-08-10T09:23:48Z</time>
      </trkpt>
      <trkpt lat="50.28575" lon="2.2556">
        <ele>50.61</ele>
        <time>2022-08-10T09:23:59Z</time>
      </trkpt>
      <trkpt lat="50.28571" lon="2.25583">
        <ele>50.13</ele>
        <time>2022-08-10T09:24:12Z</time>
      </trkpt>
      <trkpt lat="50.28567" lon="2.25603">
        <ele>50.13</ele>
        <time>2022-08-10T09:24:23Z</time>
      </trkpt>
      <trkpt lat="50.28559" lon="2.25623">
        <ele>52.53</ele>
        <time>2022-08-10T09:24:35Z</time>
      </trkpt>
      <trkpt lat="50.28547" lon="2.25639">
        <ele>55.89</ele>
        <time>2022-08-10T09:24:48Z</time>
      </trkpt>
      <trkpt lat="50.28532" lon="2.25652">
        <ele>61.66</ele>
        <time>2022-08-10T09:25:01Z</time>
      </trkpt>
      <trkpt lat="50.28517" lon="2.25663">
        <ele>63.1</ele>
        <time>2022-08-10T09:25:14Z</time>
      </trkpt>
      <trkpt lat="50.28504" lon="2.25675">
        <ele>61.66</ele>
        <time>2022-08-10T09:25:26Z</time>
      </trkpt>
      <trkpt lat="50.28488" lon="2.25691">
        <ele>61.66</ele>
        <time>2022-08-10T09:25:40Z</time>
      </trkpt>
      <trkpt lat="50.28477" lon="2.25706">
        <ele>61.18</ele>
        <time>2022-08-10T09:25:53Z</time>
      </trkpt>
      <trkpt lat="50.28461" lon="2.25727">
        <ele>62.14</ele>
        <time>2022-08-10T09:26:08Z</time>
      </trkpt>
      <trkpt lat="50.28447" lon="2.25745">
        <ele>61.66</ele>
        <time>2022-08-10T09:26:23Z</time>
      </trkpt>
      <trkpt lat="50.28436" lon="2.25757">
        <ele>59.74</ele>
        <time>2022-08-10T09:26:34Z</time>
      </trkpt>
      <trkpt lat="50.28433" lon="2.25761">
        <ele>60.22</ele>
        <time>2022-08-10T09:26:37Z</time>
      </trkpt>
      <trkpt lat="50.28424" lon="2.25765">
        <ele>60.22</ele>
        <time>2022-08-10T09:26:47Z</time>
      </trkpt>
      <trkpt lat="50.28412" lon="2.25761">
        <ele>57.34</ele>
        <time>2022-08-10T09:26:57Z</time>
      </trkpt>
      <trkpt lat="50.28407" lon="2.25761">
        <ele>57.34</ele>
        <time>2022-08-10T09:27:01Z</time>
      </trkpt>
      <trkpt lat="50.28397" lon="2.25764">
        <ele>57.34</ele>
        <time>2022-08-10T09:27:09Z</time>
      </trkpt>
      <trkpt lat="50.28384" lon="2.25771">
        <ele>56.37</ele>
        <time>2022-08-10T09:27:22Z</time>
      </trkpt>
      <trkpt lat="50.28375" lon="2.25771">
        <ele>54.93</ele>
        <time>2022-08-10T09:27:32Z</time>
      </trkpt>
      <trkpt lat="50.28373" lon="2.25773">
        <ele>55.89</ele>
        <time>2022-08-10T09:27:43Z</time>
      </trkpt>
      <trkpt lat="50.28373" lon="2.25773">
        <ele>55.41</ele>
        <time>2022-08-10T09:28:03Z</time>
      </trkpt>
      <trkpt lat="50.28373" lon="2.25773">
        <ele>55.41</ele>
        <time>2022-08-10T09:28:05Z</time>
      </trkpt>
    </trkseg>
  </trk>
</gpx>